<?xml version='1.0' encoding='UTF-8'?><gpx version="1.1" creator="JPX - https://github.com/jenetics/jpx" xmlns="http://www.topografix.com/GPX/1/1"><trk><trkseg><trkpt lat="45.5945220852565" lon="10.134533297934606"><ele>163.99999999999997</ele><time>2026-05-02T14:30:13Z</time></trkpt><trkpt lat="45.59453072708645" lon="10.13441903508912"><ele>164.0</ele><time>2026-05-02T14:30:24Z</time></trkpt><trkpt lat="45.594546687107545" lon="10.134322008766771"><ele>164.0</ele><time>2026-05-02T14:30:28Z</time></trkpt><trkpt lat="45.59454998610056" lon="10.134220828936783"><ele>164.0</ele><time>2026-05-02T14:30:31Z</time></trkpt><trkpt lat="45.59456041864264" lon="10.134131466007759"><ele>164.0</ele><time>2026-05-02T14:30:34Z</time></trkpt><trkpt lat="45.59456974916889" lon="10.13403170032541"><ele>163.99999999999997</ele><time>2026-05-02T14:30:37Z</time></trkpt><trkpt lat="45.59460823077101" lon="10.133929808386805"><ele>164.0</ele><time>2026-05-02T14:30:40.001Z</time></trkpt><trkpt lat="45.59462248749379" lon="10.133832261608235"><ele>163.99999999999997</ele><time>2026-05-02T14:30:43.001Z</time></trkpt><trkpt lat="45.59464403090369" lon="10.133731808925248"><ele>164.0</ele><time>2026-05-02T14:30:46.001Z</time></trkpt><trkpt lat="45.594668349803875" lon="10.133624930061575"><ele>164.0</ele><time>2026-05-02T14:30:49.001Z</time></trkpt><trkpt lat="45.5946900377204" lon="10.133526487081951"><ele>164.0</ele><time>2026-05-02T14:30:52.001Z</time></trkpt><trkpt lat="45.594703588022234" lon="10.13342258536718"><ele>164.0</ele><time>2026-05-02T14:30:55.001Z</time></trkpt><trkpt lat="45.59472160925578" lon="10.133324580389695"><ele>163.99999999999997</ele><time>2026-05-02T14:30:58.001Z</time></trkpt><trkpt lat="45.594737923078306" lon="10.133222216957943"><ele>164.0</ele><time>2026-05-02T14:31:01.001Z</time></trkpt><trkpt lat="45.59475045308104" lon="10.133127655433695"><ele>163.57142857142856</ele><time>2026-05-02T14:31:04.001Z</time></trkpt><trkpt lat="45.594769482182" lon="10.13302233524776"><ele>163.14285714285714</ele><time>2026-05-02T14:31:07.001Z</time></trkpt><trkpt lat="45.594794705509415" lon="10.132914744965943"><ele>162.71428571428572</ele><time>2026-05-02T14:31:10.001Z</time></trkpt><trkpt lat="45.594816522939155" lon="10.132817823532681"><ele>162.28571428571428</ele><time>2026-05-02T14:31:13.001Z</time></trkpt><trkpt lat="45.59483385596965" lon="10.132713942618945"><ele>161.85714285714286</ele><time>2026-05-02T14:31:16.001Z</time></trkpt><trkpt lat="45.59484974227409" lon="10.132613684957596"><ele>161.42857142857142</ele><time>2026-05-02T14:31:19.001Z</time></trkpt><trkpt lat="45.59486362533092" lon="10.132512527069018"><ele>161.0</ele><time>2026-05-02T14:31:22.001Z</time></trkpt><trkpt lat="45.594885979043" lon="10.132405625793922"><ele>160.85714285714286</ele><time>2026-05-02T14:31:25.001Z</time></trkpt><trkpt lat="45.5949073602494" lon="10.132298277284153"><ele>160.71428571428572</ele><time>2026-05-02T14:31:28.002Z</time></trkpt><trkpt lat="45.594917824504286" lon="10.132205238929407"><ele>160.57142857142856</ele><time>2026-05-02T14:31:31.002Z</time></trkpt><trkpt lat="45.59493824892397" lon="10.132086195894313"><ele>160.42857142857144</ele><time>2026-05-02T14:31:35.002Z</time></trkpt><trkpt lat="45.5949559840909" lon="10.131991797573358"><ele>160.28571428571428</ele><time>2026-05-02T14:31:38.002Z</time></trkpt><trkpt lat="45.59497570906866" lon="10.131895432086333"><ele>160.14285714285714</ele><time>2026-05-02T14:31:41.002Z</time></trkpt><trkpt lat="45.5949904796566" lon="10.13178410654111"><ele>160.0</ele><time>2026-05-02T14:31:44.002Z</time></trkpt><trkpt lat="45.595014124630474" lon="10.13168538798953"><ele>160.0</ele><time>2026-05-02T14:31:47.002Z</time></trkpt><trkpt lat="45.59508045029454" lon="10.131622457845044"><ele>160.0</ele><time>2026-05-02T14:31:50.002Z</time></trkpt><trkpt lat="45.5951473545372" lon="10.131613764181147"><ele>160.0</ele><time>2026-05-02T14:31:53.002Z</time></trkpt><trkpt lat="45.59521298366633" lon="10.131614731988156"><ele>160.0</ele><time>2026-05-02T14:31:56.002Z</time></trkpt><trkpt lat="45.59528938823092" lon="10.131626903358027"><ele>160.0</ele><time>2026-05-02T14:31:59.002Z</time></trkpt><trkpt lat="45.595352762105705" lon="10.131644818267771"><ele>160.0</ele><time>2026-05-02T14:32:02.002Z</time></trkpt><trkpt lat="45.59542979939418" lon="10.131662428287896"><ele>160.0</ele><time>2026-05-02T14:32:05.002Z</time></trkpt><trkpt lat="45.59550011499285" lon="10.131650556848282"><ele>160.83333333333334</ele><time>2026-05-02T14:32:08.002Z</time></trkpt><trkpt lat="45.5955688569596" lon="10.131615156341285"><ele>161.66666666666669</ele><time>2026-05-02T14:32:11.002Z</time></trkpt><trkpt lat="45.59562611181185" lon="10.131575428339392"><ele>162.5</ele><time>2026-05-02T14:32:14.002Z</time></trkpt><trkpt lat="45.59570599053224" lon="10.131617842033158"><ele>163.33333333333334</ele><time>2026-05-02T14:32:17.003Z</time></trkpt><trkpt lat="45.5957727680518" lon="10.13168404824522"><ele>164.16666666666666</ele><time>2026-05-02T14:32:20.003Z</time></trkpt><trkpt lat="45.59584372352957" lon="10.13173301055257"><ele>165.0</ele><time>2026-05-02T14:32:23.003Z</time></trkpt><trkpt lat="45.59591594608784" lon="10.131783039207525"><ele>165.00000000000003</ele><time>2026-05-02T14:32:26.003Z</time></trkpt><trkpt lat="45.59597191728321" lon="10.131837341174448"><ele>165.0</ele><time>2026-05-02T14:32:29.003Z</time></trkpt><trkpt lat="45.59603511457262" lon="10.13190254427936"><ele>165.0</ele><time>2026-05-02T14:32:32.003Z</time></trkpt><trkpt lat="45.59609420604731" lon="10.131963904787524"><ele>165.0</ele><time>2026-05-02T14:32:35.003Z</time></trkpt><trkpt lat="45.5961512735839" lon="10.132027601744404"><ele>165.0</ele><time>2026-05-02T14:32:38.003Z</time></trkpt><trkpt lat="45.59621173485745" lon="10.132089143654564"><ele>165.00000000000003</ele><time>2026-05-02T14:32:41.003Z</time></trkpt><trkpt lat="45.596278715061324" lon="10.132143869404898"><ele>165.0</ele><time>2026-05-02T14:32:44.003Z</time></trkpt><trkpt lat="45.59635085745544" lon="10.13217909336596"><ele>165.33333333333334</ele><time>2026-05-02T14:32:47.003Z</time></trkpt><trkpt lat="45.59641757320678" lon="10.132122138010484"><ele>165.66666666666666</ele><time>2026-05-02T14:32:50.003Z</time></trkpt><trkpt lat="45.5964825648499" lon="10.13202870213104"><ele>166.0</ele><time>2026-05-02T14:32:53.003Z</time></trkpt><trkpt lat="45.59653499807447" lon="10.131938929144441"><ele>166.33333333333331</ele><time>2026-05-02T14:32:56.003Z</time></trkpt><trkpt lat="45.596587067071624" lon="10.131838608972894"><ele>166.66666666666666</ele><time>2026-05-02T14:32:59.003Z</time></trkpt><trkpt lat="45.59662897897458" lon="10.131756729572974"><ele>167.0</ele><time>2026-05-02T14:33:02.003Z</time></trkpt><trkpt lat="45.596635346806515" lon="10.131650790759993"><ele>166.5</ele><time>2026-05-02T14:33:05.004Z</time></trkpt><trkpt lat="45.596668728759994" lon="10.131539814203911"><ele>166.0</ele><time>2026-05-02T14:33:08.004Z</time></trkpt><trkpt lat="45.59670245978109" lon="10.131438722808662"><ele>165.5</ele><time>2026-05-02T14:33:11.004Z</time></trkpt><trkpt lat="45.59673002651677" lon="10.13134001491229"><ele>165.0</ele><time>2026-05-02T14:33:14.004Z</time></trkpt><trkpt lat="45.5967542509656" lon="10.1312327949675"><ele>164.5</ele><time>2026-05-02T14:33:17.004Z</time></trkpt><trkpt lat="45.59677743029798" lon="10.131131585110372"><ele>164.0</ele><time>2026-05-02T14:33:20.004Z</time></trkpt><trkpt lat="45.59679779346288" lon="10.131030807776582"><ele>164.0</ele><time>2026-05-02T14:33:23.004Z</time></trkpt><trkpt lat="45.596797143163194" lon="10.130923474977289"><ele>164.0</ele><time>2026-05-02T14:33:26.004Z</time></trkpt><trkpt lat="45.59680050955288" lon="10.130812366818258"><ele>164.0</ele><time>2026-05-02T14:33:29.004Z</time></trkpt><trkpt lat="45.596802439782316" lon="10.130702749056585"><ele>164.0</ele><time>2026-05-02T14:33:32.004Z</time></trkpt><trkpt lat="45.59679703488261" lon="10.130591668133935"><ele>164.0</ele><time>2026-05-02T14:33:35.004Z</time></trkpt><trkpt lat="45.59679464929788" lon="10.130480229025089"><ele>164.0</ele><time>2026-05-02T14:33:38.004Z</time></trkpt><trkpt lat="45.59679100633618" lon="10.130372466421758"><ele>163.83333333333331</ele><time>2026-05-02T14:33:41.004Z</time></trkpt><trkpt lat="45.59680170970533" lon="10.130258543193595"><ele>163.66666666666666</ele><time>2026-05-02T14:33:44.004Z</time></trkpt><trkpt lat="45.59680129580546" lon="10.130148674931032"><ele>163.5</ele><time>2026-05-02T14:33:47.004Z</time></trkpt><trkpt lat="45.5968078243131" lon="10.13004337692282"><ele>163.33333333333334</ele><time>2026-05-02T14:33:50.004Z</time></trkpt><trkpt lat="45.596814091719125" lon="10.12993601260873"><ele>163.16666666666669</ele><time>2026-05-02T14:33:53.005Z</time></trkpt><trkpt lat="45.59681925834151" lon="10.129828169669647"><ele>163.0</ele><time>2026-05-02T14:33:56.005Z</time></trkpt><trkpt lat="45.59682644948869" lon="10.129716335700708"><ele>163.0</ele><time>2026-05-02T14:33:59.005Z</time></trkpt><trkpt lat="45.596830528142085" lon="10.129608419565375"><ele>163.0</ele><time>2026-05-02T14:34:02.005Z</time></trkpt><trkpt lat="45.59682918161672" lon="10.129491398245843"><ele>163.0</ele><time>2026-05-02T14:34:05.005Z</time></trkpt><trkpt lat="45.596817439285864" lon="10.12939600398782"><ele>163.0</ele><time>2026-05-02T14:34:08.005Z</time></trkpt><trkpt lat="45.596799415837715" lon="10.129282278707267"><ele>163.0</ele><time>2026-05-02T14:34:11.005Z</time></trkpt><trkpt lat="45.59677339316" lon="10.129171897676938"><ele>163.0</ele><time>2026-05-02T14:34:14.005Z</time></trkpt><trkpt lat="45.596747738514516" lon="10.129059427728013"><ele>162.71428571428572</ele><time>2026-05-02T14:34:17.005Z</time></trkpt><trkpt lat="45.596728197990885" lon="10.128956125623414"><ele>162.42857142857142</ele><time>2026-05-02T14:34:20.005Z</time></trkpt><trkpt lat="45.59668565158165" lon="10.128855963214365"><ele>162.14285714285714</ele><time>2026-05-02T14:34:23.005Z</time></trkpt><trkpt lat="45.596662738864794" lon="10.128753496298007"><ele>161.85714285714286</ele><time>2026-05-02T14:34:26.005Z</time></trkpt><trkpt lat="45.59664870749461" lon="10.128654642940255"><ele>161.57142857142856</ele><time>2026-05-02T14:34:29.005Z</time></trkpt><trkpt lat="45.596633037064414" lon="10.128553656639403"><ele>161.28571428571428</ele><time>2026-05-02T14:34:32.005Z</time></trkpt><trkpt lat="45.59662152554081" lon="10.128449215425224"><ele>161.0</ele><time>2026-05-02T14:34:35.005Z</time></trkpt><trkpt lat="45.59660569681119" lon="10.128342517623638"><ele>161.0</ele><time>2026-05-02T14:34:38.005Z</time></trkpt><trkpt lat="45.596592322204394" lon="10.128231659750663"><ele>161.0</ele><time>2026-05-02T14:34:41.005Z</time></trkpt><trkpt lat="45.59657580720406" lon="10.128127314289415"><ele>161.0</ele><time>2026-05-02T14:34:44.006Z</time></trkpt><trkpt lat="45.59656056029497" lon="10.128020444697425"><ele>161.0</ele><time>2026-05-02T14:34:47.006Z</time></trkpt><trkpt lat="45.59654171216925" lon="10.12791804459069"><ele>161.0</ele><time>2026-05-02T14:34:50.006Z</time></trkpt><trkpt lat="45.59653627499768" lon="10.127820822519993"><ele>161.0</ele><time>2026-05-02T14:34:53.006Z</time></trkpt><trkpt lat="45.59651873936221" lon="10.12770791211941"><ele>161.33333333333331</ele><time>2026-05-02T14:34:56.006Z</time></trkpt><trkpt lat="45.596512854904915" lon="10.127597052129879"><ele>161.66666666666666</ele><time>2026-05-02T14:34:59.006Z</time></trkpt><trkpt lat="45.59650622853904" lon="10.127485402585275"><ele>162.0</ele><time>2026-05-02T14:35:02.006Z</time></trkpt><trkpt lat="45.5965003163702" lon="10.12737659235925"><ele>162.33333333333334</ele><time>2026-05-02T14:35:05.006Z</time></trkpt><trkpt lat="45.59650335809914" lon="10.127269403657289"><ele>162.66666666666669</ele><time>2026-05-02T14:35:08.006Z</time></trkpt><trkpt lat="45.59651261387333" lon="10.127157589939907"><ele>163.0</ele><time>2026-05-02T14:35:11.006Z</time></trkpt><trkpt lat="45.596513705587775" lon="10.12704924702647"><ele>163.2857142857143</ele><time>2026-05-02T14:35:14.006Z</time></trkpt><trkpt lat="45.596508848802344" lon="10.126946579744581"><ele>163.57142857142856</ele><time>2026-05-02T14:35:17.006Z</time></trkpt><trkpt lat="45.5964965688519" lon="10.126849138855667"><ele>163.85714285714286</ele><time>2026-05-02T14:35:20.006Z</time></trkpt><trkpt lat="45.59650698984163" lon="10.126750163172627"><ele>164.14285714285717</ele><time>2026-05-02T14:35:23.006Z</time></trkpt><trkpt lat="45.596527114628955" lon="10.126643528292718"><ele>164.42857142857144</ele><time>2026-05-02T14:35:26.006Z</time></trkpt><trkpt lat="45.59653579483292" lon="10.1265371610053"><ele>164.71428571428572</ele><time>2026-05-02T14:35:29.006Z</time></trkpt><trkpt lat="45.59654501640142" lon="10.126439178820577"><ele>165.0</ele><time>2026-05-02T14:35:32.007Z</time></trkpt><trkpt lat="45.59654814956948" lon="10.12633273421676"><ele>165.5</ele><time>2026-05-02T14:35:35.007Z</time></trkpt><trkpt lat="45.596561786464356" lon="10.12622571076806"><ele>166.0</ele><time>2026-05-02T14:35:38.007Z</time></trkpt><trkpt lat="45.59656495943814" lon="10.126114287425718"><ele>166.5</ele><time>2026-05-02T14:35:41.007Z</time></trkpt><trkpt lat="45.59655891706679" lon="10.126007206460807"><ele>167.0</ele><time>2026-05-02T14:35:44.007Z</time></trkpt><trkpt lat="45.59655989311698" lon="10.125889220523101"><ele>167.5</ele><time>2026-05-02T14:35:47.007Z</time></trkpt><trkpt lat="45.596562628666675" lon="10.125779688919854"><ele>168.0</ele><time>2026-05-02T14:35:50.007Z</time></trkpt><trkpt lat="45.596557603550785" lon="10.125668721968758"><ele>168.0</ele><time>2026-05-02T14:35:53.007Z</time></trkpt><trkpt lat="45.596568578542744" lon="10.125571154176484"><ele>168.0</ele><time>2026-05-02T14:35:56.007Z</time></trkpt><trkpt lat="45.5966085671863" lon="10.125463587704338"><ele>168.0</ele><time>2026-05-02T14:35:59.007Z</time></trkpt><trkpt lat="45.59661394829817" lon="10.125355725778153"><ele>168.0</ele><time>2026-05-02T14:36:02.007Z</time></trkpt><trkpt lat="45.59662609570852" lon="10.12524589365523"><ele>168.0</ele><time>2026-05-02T14:36:05.007Z</time></trkpt><trkpt lat="45.59663329252721" lon="10.12513419613464"><ele>168.0</ele><time>2026-05-02T14:36:08.007Z</time></trkpt><trkpt lat="45.59663385274305" lon="10.125027863447185"><ele>168.0</ele><time>2026-05-02T14:36:11.007Z</time></trkpt><trkpt lat="45.596637982756405" lon="10.124924032171327"><ele>168.0</ele><time>2026-05-02T14:36:14.007Z</time></trkpt><trkpt lat="45.596634711657714" lon="10.124825876384607"><ele>168.0</ele><time>2026-05-02T14:36:17.007Z</time></trkpt><trkpt lat="45.59665232426842" lon="10.124704625931582"><ele>168.0</ele><time>2026-05-02T14:36:20.008Z</time></trkpt><trkpt lat="45.59665550396771" lon="10.124600516216901"><ele>168.0</ele><time>2026-05-02T14:36:23.008Z</time></trkpt><trkpt lat="45.596641586446005" lon="10.12448933292385"><ele>168.0</ele><time>2026-05-02T14:36:26.008Z</time></trkpt><trkpt lat="45.59660685753994" lon="10.12438105753843"><ele>168.0</ele><time>2026-05-02T14:36:29.008Z</time></trkpt><trkpt lat="45.59659745329747" lon="10.124278791712541"><ele>168.0</ele><time>2026-05-02T14:36:32.008Z</time></trkpt><trkpt lat="45.596601484767696" lon="10.124184442423076"><ele>168.0</ele><time>2026-05-02T14:36:35.008Z</time></trkpt><trkpt lat="45.596560741756804" lon="10.124084552611503"><ele>168.0</ele><time>2026-05-02T14:36:38.008Z</time></trkpt><trkpt lat="45.59654331935689" lon="10.123974752198622"><ele>168.0</ele><time>2026-05-02T14:36:41.008Z</time></trkpt><trkpt lat="45.59656200567484" lon="10.12385377286925"><ele>168.0</ele><time>2026-05-02T14:36:44.008Z</time></trkpt><trkpt lat="45.596584922090734" lon="10.123763632927187"><ele>168.0</ele><time>2026-05-02T14:36:47.008Z</time></trkpt><trkpt lat="45.59659820317904" lon="10.123646503787532"><ele>168.0</ele><time>2026-05-02T14:36:50.008Z</time></trkpt><trkpt lat="45.596599013087854" lon="10.123529349201306"><ele>168.0</ele><time>2026-05-02T14:36:53.008Z</time></trkpt><trkpt lat="45.596594947467494" lon="10.123413533153506"><ele>168.0</ele><time>2026-05-02T14:36:56.008Z</time></trkpt><trkpt lat="45.59659924909612" lon="10.123292695703942"><ele>168.0</ele><time>2026-05-02T14:36:59.008Z</time></trkpt><trkpt lat="45.59659950431568" lon="10.123182647494119"><ele>168.0</ele><time>2026-05-02T14:37:02.008Z</time></trkpt><trkpt lat="45.59658388336847" lon="10.123085191266"><ele>167.71428571428572</ele><time>2026-05-02T14:37:05.008Z</time></trkpt><trkpt lat="45.59658465852631" lon="10.122980188301584"><ele>167.42857142857144</ele><time>2026-05-02T14:37:08.008Z</time></trkpt><trkpt lat="45.596573407522214" lon="10.122878840808191"><ele>167.14285714285714</ele><time>2026-05-02T14:37:11.009Z</time></trkpt><trkpt lat="45.59657956136609" lon="10.122771273824403"><ele>166.85714285714286</ele><time>2026-05-02T14:37:14.009Z</time></trkpt><trkpt lat="45.59658226814258" lon="10.122661835290275"><ele>166.57142857142858</ele><time>2026-05-02T14:37:17.009Z</time></trkpt><trkpt lat="45.596572192839645" lon="10.12255953078097"><ele>166.28571428571428</ele><time>2026-05-02T14:37:20.009Z</time></trkpt><trkpt lat="45.59657836232241" lon="10.122448164392436"><ele>166.0</ele><time>2026-05-02T14:37:23.009Z</time></trkpt><trkpt lat="45.59658725397265" lon="10.122337298261687"><ele>165.83333333333334</ele><time>2026-05-02T14:37:26.009Z</time></trkpt><trkpt lat="45.596616098722905" lon="10.122235261446194"><ele>165.66666666666669</ele><time>2026-05-02T14:37:29.009Z</time></trkpt><trkpt lat="45.596655486728935" lon="10.122125666306514"><ele>165.5</ele><time>2026-05-02T14:37:32.009Z</time></trkpt><trkpt lat="45.59669236792688" lon="10.122018171897299"><ele>165.33333333333334</ele><time>2026-05-02T14:37:35.009Z</time></trkpt><trkpt lat="45.59671553660865" lon="10.121919217502125"><ele>165.16666666666666</ele><time>2026-05-02T14:37:38.009Z</time></trkpt><trkpt lat="45.5967313698709" lon="10.12179129824147"><ele>165.0</ele><time>2026-05-02T14:37:41.009Z</time></trkpt><trkpt lat="45.5967570161948" lon="10.121681157707219"><ele>165.0</ele><time>2026-05-02T14:37:44.009Z</time></trkpt><trkpt lat="45.59677802986507" lon="10.121562788361915"><ele>165.0</ele><time>2026-05-02T14:37:47.009Z</time></trkpt><trkpt lat="45.596777275834" lon="10.12145861732633"><ele>165.0</ele><time>2026-05-02T14:37:50.009Z</time></trkpt><trkpt lat="45.59679947700075" lon="10.121352646078797"><ele>165.0</ele><time>2026-05-02T14:37:53.009Z</time></trkpt><trkpt lat="45.59681639281315" lon="10.121234457248814"><ele>165.0</ele><time>2026-05-02T14:37:56.009Z</time></trkpt><trkpt lat="45.59682980405436" lon="10.121121256600057"><ele>165.0</ele><time>2026-05-02T14:37:59.01Z</time></trkpt><trkpt lat="45.59683169886815" lon="10.12101757485255"><ele>165.0</ele><time>2026-05-02T14:38:02.01Z</time></trkpt><trkpt lat="45.59683097689661" lon="10.120899708106851"><ele>165.0</ele><time>2026-05-02T14:38:05.01Z</time></trkpt><trkpt lat="45.59683561696446" lon="10.120790784144326"><ele>165.0</ele><time>2026-05-02T14:38:08.01Z</time></trkpt><trkpt lat="45.59684622655946" lon="10.120683808617457"><ele>165.0</ele><time>2026-05-02T14:38:11.01Z</time></trkpt><trkpt lat="45.59686068773779" lon="10.120577345193455"><ele>165.0</ele><time>2026-05-02T14:38:14.01Z</time></trkpt><trkpt lat="45.59686623681323" lon="10.120459930904968"><ele>165.0</ele><time>2026-05-02T14:38:17.01Z</time></trkpt><trkpt lat="45.59687415424899" lon="10.120362177486433"><ele>165.16666666666666</ele><time>2026-05-02T14:38:20.01Z</time></trkpt><trkpt lat="45.59688344272004" lon="10.12025524683672"><ele>165.33333333333334</ele><time>2026-05-02T14:38:23.01Z</time></trkpt><trkpt lat="45.596901355618165" lon="10.120128188736766"><ele>165.5</ele><time>2026-05-02T14:38:26.01Z</time></trkpt><trkpt lat="45.596918292064245" lon="10.120010290175136"><ele>165.66666666666669</ele><time>2026-05-02T14:38:29.01Z</time></trkpt><trkpt lat="45.59692635099347" lon="10.119901013743087"><ele>165.83333333333334</ele><time>2026-05-02T14:38:32.01Z</time></trkpt><trkpt lat="45.59693236437279" lon="10.119799829132955"><ele>166.0</ele><time>2026-05-02T14:38:35.01Z</time></trkpt><trkpt lat="45.59692191532222" lon="10.119690441451265"><ele>166.5</ele><time>2026-05-02T14:38:38.01Z</time></trkpt><trkpt lat="45.59692038185918" lon="10.119582714477618"><ele>167.0</ele><time>2026-05-02T14:38:41.01Z</time></trkpt><trkpt lat="45.59692786136531" lon="10.119467366661125"><ele>167.5</ele><time>2026-05-02T14:38:44.01Z</time></trkpt><trkpt lat="45.59693840146214" lon="10.119349220910546"><ele>168.0</ele><time>2026-05-02T14:38:47.01Z</time></trkpt><trkpt lat="45.59694484186737" lon="10.119244578608095"><ele>168.5</ele><time>2026-05-02T14:38:50.011Z</time></trkpt><trkpt lat="45.596960809379794" lon="10.119139733401354"><ele>169.0</ele><time>2026-05-02T14:38:53.011Z</time></trkpt><trkpt lat="45.59697901643718" lon="10.119024377908337"><ele>169.0</ele><time>2026-05-02T14:38:56.011Z</time></trkpt><trkpt lat="45.59697963192665" lon="10.118911295062981"><ele>169.0</ele><time>2026-05-02T14:38:59.011Z</time></trkpt><trkpt lat="45.596984434213454" lon="10.11880175747126"><ele>169.0</ele><time>2026-05-02T14:39:02.011Z</time></trkpt><trkpt lat="45.59700012278322" lon="10.11869178601772"><ele>169.0</ele><time>2026-05-02T14:39:05.011Z</time></trkpt><trkpt lat="45.59701114154996" lon="10.118590054048665"><ele>169.0</ele><time>2026-05-02T14:39:08.011Z</time></trkpt><trkpt lat="45.59703003493751" lon="10.11848990791151"><ele>169.0</ele><time>2026-05-02T14:39:11.011Z</time></trkpt><trkpt lat="45.597018792369745" lon="10.118383404668572"><ele>168.83333333333334</ele><time>2026-05-02T14:39:14.011Z</time></trkpt><trkpt lat="45.59703951156377" lon="10.118281322652155"><ele>168.66666666666669</ele><time>2026-05-02T14:39:17.011Z</time></trkpt><trkpt lat="45.59704689813217" lon="10.118161042405319"><ele>168.5</ele><time>2026-05-02T14:39:20.011Z</time></trkpt><trkpt lat="45.59706209610394" lon="10.118059837692162"><ele>168.33333333333334</ele><time>2026-05-02T14:39:23.011Z</time></trkpt><trkpt lat="45.597066394430456" lon="10.117960995323951"><ele>168.16666666666666</ele><time>2026-05-02T14:39:26.011Z</time></trkpt><trkpt lat="45.59707695636408" lon="10.11784180949923"><ele>168.0</ele><time>2026-05-02T14:39:29.011Z</time></trkpt><trkpt lat="45.5970847002619" lon="10.117734060360373"><ele>168.33333333333334</ele><time>2026-05-02T14:39:32.011Z</time></trkpt><trkpt lat="45.59709740739477" lon="10.117618184197164"><ele>168.66666666666666</ele><time>2026-05-02T14:39:35.011Z</time></trkpt><trkpt lat="45.59713044162975" lon="10.117509176804761"><ele>169.0</ele><time>2026-05-02T14:39:38.012Z</time></trkpt><trkpt lat="45.597131163841325" lon="10.117386859905832"><ele>169.33333333333331</ele><time>2026-05-02T14:39:41.012Z</time></trkpt><trkpt lat="45.597122734479804" lon="10.117292816420793"><ele>169.66666666666666</ele><time>2026-05-02T14:39:43.012Z</time></trkpt><trkpt lat="45.59712162053341" lon="10.117166160291235"><ele>170.0</ele><time>2026-05-02T14:39:46.012Z</time></trkpt><trkpt lat="45.59711876442025" lon="10.117040602651036"><ele>170.16666666666666</ele><time>2026-05-02T14:39:49.012Z</time></trkpt><trkpt lat="45.59711387021619" lon="10.116929657018524"><ele>170.33333333333331</ele><time>2026-05-02T14:39:52.012Z</time></trkpt><trkpt lat="45.59712209238103" lon="10.116819734843283"><ele>170.5</ele><time>2026-05-02T14:39:55.012Z</time></trkpt><trkpt lat="45.59712355264295" lon="10.116705992469148"><ele>170.66666666666666</ele><time>2026-05-02T14:39:58.012Z</time></trkpt><trkpt lat="45.59712345664591" lon="10.116588428339236"><ele>170.83333333333334</ele><time>2026-05-02T14:40:01.012Z</time></trkpt><trkpt lat="45.59712136796618" lon="10.116474262878873"><ele>171.0</ele><time>2026-05-02T14:40:04.012Z</time></trkpt><trkpt lat="45.59711481430566" lon="10.11634775047298"><ele>171.16666666666666</ele><time>2026-05-02T14:40:07.012Z</time></trkpt><trkpt lat="45.59710816533954" lon="10.116232040110244"><ele>171.33333333333334</ele><time>2026-05-02T14:40:10.012Z</time></trkpt><trkpt lat="45.597122407983804" lon="10.116123589312549"><ele>171.5</ele><time>2026-05-02T14:40:13.012Z</time></trkpt><trkpt lat="45.59710224416794" lon="10.116023063167146"><ele>171.66666666666669</ele><time>2026-05-02T14:40:16.012Z</time></trkpt><trkpt lat="45.59708989418972" lon="10.115899591238783"><ele>171.83333333333334</ele><time>2026-05-02T14:40:19.012Z</time></trkpt><trkpt lat="45.597089016635096" lon="10.115775023831503"><ele>172.0</ele><time>2026-05-02T14:40:22.012Z</time></trkpt><trkpt lat="45.59705480528225" lon="10.115662599049383"><ele>171.83333333333334</ele><time>2026-05-02T14:40:25.012Z</time></trkpt><trkpt lat="45.59704091480755" lon="10.115554155029129"><ele>171.66666666666669</ele><time>2026-05-02T14:40:28.013Z</time></trkpt><trkpt lat="45.59702442871848" lon="10.115447506762075"><ele>171.5</ele><time>2026-05-02T14:40:31.013Z</time></trkpt><trkpt lat="45.59700557631225" lon="10.115347531669256"><ele>171.33333333333334</ele><time>2026-05-02T14:40:34.013Z</time></trkpt><trkpt lat="45.597003663032325" lon="10.115242729354032"><ele>171.16666666666666</ele><time>2026-05-02T14:40:37.013Z</time></trkpt><trkpt lat="45.596978502346715" lon="10.115124780325996"><ele>171.0</ele><time>2026-05-02T14:40:40.013Z</time></trkpt><trkpt lat="45.59695932227659" lon="10.114996450705517"><ele>171.16666666666666</ele><time>2026-05-02T14:40:43.013Z</time></trkpt><trkpt lat="45.59694352624423" lon="10.114887866248047"><ele>171.33333333333334</ele><time>2026-05-02T14:40:46.013Z</time></trkpt><trkpt lat="45.59692778425941" lon="10.114778736986226"><ele>171.5</ele><time>2026-05-02T14:40:49.013Z</time></trkpt><trkpt lat="45.596909416588296" lon="10.114672261285321"><ele>171.66666666666669</ele><time>2026-05-02T14:40:52.013Z</time></trkpt><trkpt lat="45.59689502877789" lon="10.11456881548416"><ele>171.83333333333334</ele><time>2026-05-02T14:40:55.013Z</time></trkpt><trkpt lat="45.596879677417945" lon="10.114470325396397"><ele>172.0</ele><time>2026-05-02T14:40:58.013Z</time></trkpt><trkpt lat="45.59686197512562" lon="10.11436233945752"><ele>172.0</ele><time>2026-05-02T14:41:01.013Z</time></trkpt><trkpt lat="45.596852822774316" lon="10.114258004332736"><ele>172.0</ele><time>2026-05-02T14:41:04.013Z</time></trkpt><trkpt lat="45.59683638660777" lon="10.114158363082701"><ele>172.0</ele><time>2026-05-02T14:41:07.013Z</time></trkpt><trkpt lat="45.59682059526079" lon="10.114055455767211"><ele>172.0</ele><time>2026-05-02T14:41:10.013Z</time></trkpt><trkpt lat="45.59680688013584" lon="10.113944652580564"><ele>172.0</ele><time>2026-05-02T14:41:13.013Z</time></trkpt><trkpt lat="45.59679437774145" lon="10.113829585016733"><ele>172.0</ele><time>2026-05-02T14:41:16.014Z</time></trkpt><trkpt lat="45.59677753483667" lon="10.113729432465238"><ele>172.14285714285717</ele><time>2026-05-02T14:41:19.014Z</time></trkpt><trkpt lat="45.59678211224193" lon="10.113631476256861"><ele>172.28571428571428</ele><time>2026-05-02T14:41:22.014Z</time></trkpt><trkpt lat="45.59678971296415" lon="10.113515483008086"><ele>172.42857142857144</ele><time>2026-05-02T14:41:25.014Z</time></trkpt><trkpt lat="45.59679071494208" lon="10.113412074289297"><ele>172.57142857142858</ele><time>2026-05-02T14:41:28.014Z</time></trkpt><trkpt lat="45.596793513883746" lon="10.11330669151779"><ele>172.71428571428572</ele><time>2026-05-02T14:41:31.014Z</time></trkpt><trkpt lat="45.59680227680745" lon="10.11319586969577"><ele>172.85714285714286</ele><time>2026-05-02T14:41:34.014Z</time></trkpt><trkpt lat="45.596803886079904" lon="10.113091042422012"><ele>173.0</ele><time>2026-05-02T14:41:37.014Z</time></trkpt><trkpt lat="45.59680718060601" lon="10.112977667805422"><ele>173.0</ele><time>2026-05-02T14:41:40.014Z</time></trkpt><trkpt lat="45.59681982186702" lon="10.112871347539164"><ele>173.0</ele><time>2026-05-02T14:41:43.014Z</time></trkpt><trkpt lat="45.59683988228003" lon="10.112767791076333"><ele>173.0</ele><time>2026-05-02T14:41:46.014Z</time></trkpt><trkpt lat="45.59686749500427" lon="10.112662151295337"><ele>173.0</ele><time>2026-05-02T14:41:49.014Z</time></trkpt><trkpt lat="45.59688597875442" lon="10.112557570150573"><ele>173.0</ele><time>2026-05-02T14:41:52.014Z</time></trkpt><trkpt lat="45.596894288659605" lon="10.112457100382786"><ele>173.0</ele><time>2026-05-02T14:41:55.014Z</time></trkpt><trkpt lat="45.596931207325845" lon="10.112338490088176"><ele>173.28571428571428</ele><time>2026-05-02T14:41:58.014Z</time></trkpt><trkpt lat="45.596959017406974" lon="10.112248594690895"><ele>173.57142857142858</ele><time>2026-05-02T14:42:01.014Z</time></trkpt><trkpt lat="45.597013032298925" lon="10.112161159781712"><ele>173.85714285714286</ele><time>2026-05-02T14:42:04.015Z</time></trkpt><trkpt lat="45.59705114708902" lon="10.112079396786896"><ele>174.14285714285714</ele><time>2026-05-02T14:42:07.015Z</time></trkpt><trkpt lat="45.597100796384005" lon="10.112005195006706"><ele>174.42857142857144</ele><time>2026-05-02T14:42:10.015Z</time></trkpt><trkpt lat="45.59714926694679" lon="10.111933826154834"><ele>174.71428571428572</ele><time>2026-05-02T14:42:13.015Z</time></trkpt><trkpt lat="45.59716249836765" lon="10.11184395067941"><ele>175.0</ele><time>2026-05-02T14:42:15.015Z</time></trkpt><trkpt lat="45.59719085416317" lon="10.111752693737909"><ele>175.28571428571428</ele><time>2026-05-02T14:42:18.015Z</time></trkpt><trkpt lat="45.59723594460944" lon="10.11165372489283"><ele>175.57142857142856</ele><time>2026-05-02T14:42:21.015Z</time></trkpt><trkpt lat="45.59726827814139" lon="10.111561467055111"><ele>175.85714285714286</ele><time>2026-05-02T14:42:24.015Z</time></trkpt><trkpt lat="45.59729568082779" lon="10.111475443949995"><ele>176.14285714285714</ele><time>2026-05-02T14:42:27.015Z</time></trkpt><trkpt lat="45.59733770365367" lon="10.11138615801189"><ele>176.42857142857142</ele><time>2026-05-02T14:42:30.015Z</time></trkpt><trkpt lat="45.59738632884365" lon="10.111304099832763"><ele>176.71428571428572</ele><time>2026-05-02T14:42:33.015Z</time></trkpt><trkpt lat="45.597439005917856" lon="10.111247140496866"><ele>177.0</ele><time>2026-05-02T14:42:36.015Z</time></trkpt><trkpt lat="45.59749270927366" lon="10.111168363214409"><ele>177.0</ele><time>2026-05-02T14:42:39.015Z</time></trkpt><trkpt lat="45.597540036682716" lon="10.111075136907402"><ele>177.0</ele><time>2026-05-02T14:42:42.015Z</time></trkpt><trkpt lat="45.59758242817986" lon="10.110971437492223"><ele>177.0</ele><time>2026-05-02T14:42:45.015Z</time></trkpt><trkpt lat="45.59760405526814" lon="10.110865018519002"><ele>177.0</ele><time>2026-05-02T14:42:48.015Z</time></trkpt><trkpt lat="45.59761842837018" lon="10.110769147531233"><ele>177.0</ele><time>2026-05-02T14:42:51.015Z</time></trkpt><trkpt lat="45.59769102262757" lon="10.110728182699523"><ele>177.0</ele><time>2026-05-02T14:42:54.016Z</time></trkpt><trkpt lat="45.59774956692229" lon="10.110818380792606"><ele>177.0</ele><time>2026-05-02T14:42:58.016Z</time></trkpt><trkpt lat="45.59781561654455" lon="10.110881328183345"><ele>177.0</ele><time>2026-05-02T14:43:01.016Z</time></trkpt><trkpt lat="45.59788233326197" lon="10.110925364125023"><ele>177.0</ele><time>2026-05-02T14:43:04.016Z</time></trkpt><trkpt lat="45.59795094786432" lon="10.110958153120308"><ele>177.0</ele><time>2026-05-02T14:43:07.017Z</time></trkpt><trkpt lat="45.598013489118756" lon="10.110986539824728"><ele>177.0</ele><time>2026-05-02T14:43:10.017Z</time></trkpt><trkpt lat="45.59807644355729" lon="10.111005217979145"><ele>177.0</ele><time>2026-05-02T14:43:13.017Z</time></trkpt><trkpt lat="45.59815436598671" lon="10.110969586553097"><ele>177.0</ele><time>2026-05-02T14:43:16.017Z</time></trkpt><trkpt lat="45.59821515577788" lon="10.111005943970628"><ele>176.5</ele><time>2026-05-02T14:43:18.017Z</time></trkpt><trkpt lat="45.598287123973364" lon="10.111061794833892"><ele>176.0</ele><time>2026-05-02T14:43:21.017Z</time></trkpt><trkpt lat="45.59835899515697" lon="10.111117477115865"><ele>175.5</ele><time>2026-05-02T14:43:24.017Z</time></trkpt><trkpt lat="45.5984282464044" lon="10.111181304740578"><ele>175.0</ele><time>2026-05-02T14:43:27.017Z</time></trkpt><trkpt lat="45.598491593765075" lon="10.111249580653588"><ele>174.5</ele><time>2026-05-02T14:43:30.017Z</time></trkpt><trkpt lat="45.598564649820425" lon="10.11130387971667"><ele>174.0</ele><time>2026-05-02T14:43:33.017Z</time></trkpt><trkpt lat="45.59863027181208" lon="10.111367236950137"><ele>174.16666666666666</ele><time>2026-05-02T14:43:36.017Z</time></trkpt><trkpt lat="45.598696588399875" lon="10.111410923152464"><ele>174.33333333333334</ele><time>2026-05-02T14:43:39.017Z</time></trkpt><trkpt lat="45.598762189738515" lon="10.1114593835054"><ele>174.5</ele><time>2026-05-02T14:43:42.018Z</time></trkpt><trkpt lat="45.598838456172984" lon="10.111487091311986"><ele>174.66666666666669</ele><time>2026-05-02T14:43:45.018Z</time></trkpt><trkpt lat="45.59890927701634" lon="10.11152437179973"><ele>174.83333333333334</ele><time>2026-05-02T14:43:48.018Z</time></trkpt><trkpt lat="45.59898169445858" lon="10.11153895553112"><ele>175.0</ele><time>2026-05-02T14:43:51.018Z</time></trkpt><trkpt lat="45.59906122446679" lon="10.111542079894608"><ele>175.0</ele><time>2026-05-02T14:43:54.018Z</time></trkpt><trkpt lat="45.59913064190676" lon="10.111543802456252"><ele>175.0</ele><time>2026-05-02T14:43:57.018Z</time></trkpt><trkpt lat="45.59920471149257" lon="10.111544553809175"><ele>175.0</ele><time>2026-05-02T14:44:00.018Z</time></trkpt><trkpt lat="45.59927311322869" lon="10.111535160225623"><ele>175.0</ele><time>2026-05-02T14:44:03.018Z</time></trkpt><trkpt lat="45.59934604140765" lon="10.111520552655298"><ele>175.0</ele><time>2026-05-02T14:44:06.018Z</time></trkpt><trkpt lat="45.599420174018" lon="10.111491173603154"><ele>175.0</ele><time>2026-05-02T14:44:09.018Z</time></trkpt><trkpt lat="45.59949024359605" lon="10.111459153209623"><ele>175.0</ele><time>2026-05-02T14:44:12.018Z</time></trkpt><trkpt lat="45.599543915150335" lon="10.111386897992844"><ele>175.5</ele><time>2026-05-02T14:44:15.018Z</time></trkpt><trkpt lat="45.59961133435979" lon="10.111320636914941"><ele>176.0</ele><time>2026-05-02T14:44:18.018Z</time></trkpt><trkpt lat="45.599660736652325" lon="10.111240681434019"><ele>176.5</ele><time>2026-05-02T14:44:21.018Z</time></trkpt><trkpt lat="45.59970893463431" lon="10.111150416356443"><ele>177.0</ele><time>2026-05-02T14:44:24.018Z</time></trkpt><trkpt lat="45.59975121320142" lon="10.111064621260574"><ele>177.5</ele><time>2026-05-02T14:44:27.018Z</time></trkpt><trkpt lat="45.59977785117556" lon="10.11096282441513"><ele>178.0</ele><time>2026-05-02T14:44:30.018Z</time></trkpt><trkpt lat="45.599831159568055" lon="10.110880067482798"><ele>178.0</ele><time>2026-05-02T14:44:33.019Z</time></trkpt><trkpt lat="45.5998913028655" lon="10.110800271633275"><ele>178.0</ele><time>2026-05-02T14:44:36.019Z</time></trkpt><trkpt lat="45.599946723614465" lon="10.110728030461313"><ele>178.0</ele><time>2026-05-02T14:44:39.019Z</time></trkpt><trkpt lat="45.60001305452819" lon="10.110673677474917"><ele>178.0</ele><time>2026-05-02T14:44:42.019Z</time></trkpt><trkpt lat="45.600089931758234" lon="10.110635939216326"><ele>178.0</ele><time>2026-05-02T14:44:45.019Z</time></trkpt><trkpt lat="45.60016708543202" lon="10.110607913451183"><ele>178.0</ele><time>2026-05-02T14:44:48.019Z</time></trkpt><trkpt lat="45.6002412924076" lon="10.110588153409978"><ele>177.99999999999997</ele><time>2026-05-02T14:44:51.019Z</time></trkpt><trkpt lat="45.60031912315776" lon="10.110585347787316"><ele>178.0</ele><time>2026-05-02T14:44:54.019Z</time></trkpt><trkpt lat="45.600392417691424" lon="10.110577930028635"><ele>178.0</ele><time>2026-05-02T14:44:57.019Z</time></trkpt><trkpt lat="45.600463496391505" lon="10.110581071536334"><ele>178.0</ele><time>2026-05-02T14:45:00.019Z</time></trkpt><trkpt lat="45.6005351130704" lon="10.110577118114008"><ele>178.0</ele><time>2026-05-02T14:45:03.019Z</time></trkpt><trkpt lat="45.600600929370486" lon="10.110571088707841"><ele>177.99999999999997</ele><time>2026-05-02T14:45:06.019Z</time></trkpt><trkpt lat="45.6006757648642" lon="10.110573183908675"><ele>178.0</ele><time>2026-05-02T14:45:09.019Z</time></trkpt><trkpt lat="45.60075092367509" lon="10.11058136791515"><ele>177.83333333333334</ele><time>2026-05-02T14:45:12.019Z</time></trkpt><trkpt lat="45.60082948723578" lon="10.11060343692494"><ele>177.66666666666669</ele><time>2026-05-02T14:45:15.019Z</time></trkpt><trkpt lat="45.60090141042687" lon="10.110611588848585"><ele>177.5</ele><time>2026-05-02T14:45:18.019Z</time></trkpt><trkpt lat="45.60097467950256" lon="10.110646123857071"><ele>177.33333333333334</ele><time>2026-05-02T14:45:21.02Z</time></trkpt><trkpt lat="45.60105214365827" lon="10.110674385972931"><ele>177.16666666666666</ele><time>2026-05-02T14:45:24.02Z</time></trkpt><trkpt lat="45.60112305025739" lon="10.11072405087373"><ele>177.0</ele><time>2026-05-02T14:45:27.02Z</time></trkpt><trkpt lat="45.60119552462867" lon="10.110766876508599"><ele>178.0</ele><time>2026-05-02T14:45:30.02Z</time></trkpt><trkpt lat="45.60125937728634" lon="10.110850782197721"><ele>179.0</ele><time>2026-05-02T14:45:33.02Z</time></trkpt><trkpt lat="45.60131363708872" lon="10.110935674732238"><ele>180.0</ele><time>2026-05-02T14:45:36.02Z</time></trkpt><trkpt lat="45.60138720038674" lon="10.11099046982522"><ele>181.0</ele><time>2026-05-02T14:45:40.02Z</time></trkpt><trkpt lat="45.60143224930312" lon="10.111075071739327"><ele>182.0</ele><time>2026-05-02T14:45:43.02Z</time></trkpt><trkpt lat="45.60147316450203" lon="10.111151046810004"><ele>183.0</ele><time>2026-05-02T14:45:46.02Z</time></trkpt><trkpt lat="45.601521399106566" lon="10.111223579605557"><ele>183.0</ele><time>2026-05-02T14:45:49.02Z</time></trkpt><trkpt lat="45.601580319623906" lon="10.111285332524346"><ele>183.0</ele><time>2026-05-02T14:45:52.02Z</time></trkpt><trkpt lat="45.60163964134903" lon="10.111339004267476"><ele>183.0</ele><time>2026-05-02T14:45:55.02Z</time></trkpt><trkpt lat="45.60170990670958" lon="10.111356933344965"><ele>183.0</ele><time>2026-05-02T14:45:58.02Z</time></trkpt><trkpt lat="45.60178500603905" lon="10.111371342751873"><ele>183.0</ele><time>2026-05-02T14:46:01.02Z</time></trkpt><trkpt lat="45.601860375031386" lon="10.111401127734233"><ele>183.0</ele><time>2026-05-02T14:46:04.02Z</time></trkpt><trkpt lat="45.60193557168713" lon="10.11144343205886"><ele>183.0</ele><time>2026-05-02T14:46:07.02Z</time></trkpt><trkpt lat="45.60199161111593" lon="10.111530588951451"><ele>183.16666666666666</ele><time>2026-05-02T14:46:10.021Z</time></trkpt><trkpt lat="45.60205687552799" lon="10.111601066093662"><ele>183.33333333333334</ele><time>2026-05-02T14:46:13.021Z</time></trkpt><trkpt lat="45.602118917647324" lon="10.111682770295916"><ele>183.5</ele><time>2026-05-02T14:46:16.021Z</time></trkpt><trkpt lat="45.60217968197164" lon="10.11175751941758"><ele>183.66666666666669</ele><time>2026-05-02T14:46:19.021Z</time></trkpt><trkpt lat="45.60223843903256" lon="10.111838257887625"><ele>183.83333333333334</ele><time>2026-05-02T14:46:22.021Z</time></trkpt><trkpt lat="45.60229948964833" lon="10.111913352554762"><ele>184.0</ele><time>2026-05-02T14:46:25.021Z</time></trkpt><trkpt lat="45.60234796886725" lon="10.11199479251507"><ele>184.0</ele><time>2026-05-02T14:46:28.021Z</time></trkpt><trkpt lat="45.60239896248071" lon="10.112081717489371"><ele>184.0</ele><time>2026-05-02T14:46:31.021Z</time></trkpt><trkpt lat="45.602446724011436" lon="10.112164113993531"><ele>184.0</ele><time>2026-05-02T14:46:34.021Z</time></trkpt><trkpt lat="45.60248269172902" lon="10.112265289644585"><ele>184.0</ele><time>2026-05-02T14:46:37.021Z</time></trkpt><trkpt lat="45.60252743590858" lon="10.11235786957357"><ele>184.0</ele><time>2026-05-02T14:46:40.021Z</time></trkpt><trkpt lat="45.60257102422444" lon="10.112443483144132"><ele>184.0</ele><time>2026-05-02T14:46:43.021Z</time></trkpt><trkpt lat="45.60261747912219" lon="10.112532570122013"><ele>183.0</ele><time>2026-05-02T14:46:46.021Z</time></trkpt><trkpt lat="45.602691875102764" lon="10.112603359495026"><ele>182.0</ele><time>2026-05-02T14:46:49.021Z</time></trkpt><trkpt lat="45.602749367949755" lon="10.112677316406488"><ele>181.0</ele><time>2026-05-02T14:46:52.021Z</time></trkpt><trkpt lat="45.602818788424216" lon="10.112748258522492"><ele>180.0</ele><time>2026-05-02T14:46:55.021Z</time></trkpt><trkpt lat="45.6028807597902" lon="10.112811824985519"><ele>179.0</ele><time>2026-05-02T14:46:58.021Z</time></trkpt><trkpt lat="45.60294937566817" lon="10.112874280749118"><ele>178.0</ele><time>2026-05-02T14:47:01.022Z</time></trkpt><trkpt lat="45.60301499371739" lon="10.112946941839535"><ele>178.0</ele><time>2026-05-02T14:47:04.022Z</time></trkpt><trkpt lat="45.60307876330244" lon="10.112999633432517"><ele>178.0</ele><time>2026-05-02T14:47:07.022Z</time></trkpt><trkpt lat="45.60314034172453" lon="10.113065703592742"><ele>178.0</ele><time>2026-05-02T14:47:10.022Z</time></trkpt><trkpt lat="45.60320183301801" lon="10.113128381841275"><ele>178.0</ele><time>2026-05-02T14:47:13.022Z</time></trkpt><trkpt lat="45.60326991623356" lon="10.113193239701785"><ele>178.0</ele><time>2026-05-02T14:47:16.022Z</time></trkpt><trkpt lat="45.60333003001193" lon="10.113257795071608"><ele>178.0</ele><time>2026-05-02T14:47:19.022Z</time></trkpt><trkpt lat="45.60339545241783" lon="10.113314123195153"><ele>178.33333333333334</ele><time>2026-05-02T14:47:22.022Z</time></trkpt><trkpt lat="45.6034608851821" lon="10.113371709024946"><ele>178.66666666666669</ele><time>2026-05-02T14:47:25.022Z</time></trkpt><trkpt lat="45.60351531450684" lon="10.113439437464866"><ele>179.0</ele><time>2026-05-02T14:47:28.022Z</time></trkpt><trkpt lat="45.60357955472026" lon="10.11350273912344"><ele>179.33333333333334</ele><time>2026-05-02T14:47:31.022Z</time></trkpt><trkpt lat="45.60364783660022" lon="10.113574709046162"><ele>179.66666666666666</ele><time>2026-05-02T14:47:34.022Z</time></trkpt><trkpt lat="45.60370597522453" lon="10.11363397405574"><ele>180.0</ele><time>2026-05-02T14:47:37.022Z</time></trkpt><trkpt lat="45.60376077970554" lon="10.11371350800747"><ele>180.33333333333334</ele><time>2026-05-02T14:47:40.022Z</time></trkpt><trkpt lat="45.60382647658452" lon="10.1137705537732"><ele>180.66666666666666</ele><time>2026-05-02T14:47:43.022Z</time></trkpt><trkpt lat="45.60388662385553" lon="10.113846960273282"><ele>181.0</ele><time>2026-05-02T14:47:46.022Z</time></trkpt><trkpt lat="45.60394437075721" lon="10.113911304621936"><ele>181.33333333333331</ele><time>2026-05-02T14:47:49.023Z</time></trkpt><trkpt lat="45.604005601392856" lon="10.113978862685594"><ele>181.66666666666666</ele><time>2026-05-02T14:47:52.023Z</time></trkpt><trkpt lat="45.6040747347367" lon="10.1140422499875"><ele>182.0</ele><time>2026-05-02T14:47:55.023Z</time></trkpt><trkpt lat="45.60413678667034" lon="10.114113385696934"><ele>182.5</ele><time>2026-05-02T14:47:58.023Z</time></trkpt><trkpt lat="45.60420145947969" lon="10.114173836406477"><ele>183.0</ele><time>2026-05-02T14:48:01.023Z</time></trkpt><trkpt lat="45.604266876625594" lon="10.114236701257296"><ele>183.5</ele><time>2026-05-02T14:48:04.023Z</time></trkpt><trkpt lat="45.604349567111385" lon="10.114231464632756"><ele>184.0</ele><time>2026-05-02T14:48:07.023Z</time></trkpt><trkpt lat="45.60442636485851" lon="10.114212925201947"><ele>184.5</ele><time>2026-05-02T14:48:10.023Z</time></trkpt><trkpt lat="45.604464888713174" lon="10.11431976145328"><ele>185.0</ele><time>2026-05-02T14:48:13.023Z</time></trkpt><trkpt lat="45.604486667586826" lon="10.114413207275257"><ele>184.83333333333331</ele><time>2026-05-02T14:48:16.023Z</time></trkpt><trkpt lat="45.604533656983996" lon="10.114499495975478"><ele>184.66666666666666</ele><time>2026-05-02T14:48:19.023Z</time></trkpt><trkpt lat="45.60459224872779" lon="10.114589492659437"><ele>184.5</ele><time>2026-05-02T14:48:22.023Z</time></trkpt><trkpt lat="45.60465080822595" lon="10.114643942286214"><ele>184.33333333333334</ele><time>2026-05-02T14:48:25.023Z</time></trkpt><trkpt lat="45.6047112157543" lon="10.114706902005222"><ele>184.16666666666669</ele><time>2026-05-02T14:48:28.023Z</time></trkpt><trkpt lat="45.604769781734184" lon="10.114767772581947"><ele>184.0</ele><time>2026-05-02T14:48:31.023Z</time></trkpt><trkpt lat="45.60483364000524" lon="10.114833824390354"><ele>184.0</ele><time>2026-05-02T14:48:34.023Z</time></trkpt><trkpt lat="45.60488821092153" lon="10.114899592476617"><ele>184.0</ele><time>2026-05-02T14:48:37.024Z</time></trkpt><trkpt lat="45.6049494922244" lon="10.114954575427783"><ele>184.0</ele><time>2026-05-02T14:48:40.024Z</time></trkpt><trkpt lat="45.60500301053819" lon="10.115032047645261"><ele>184.0</ele><time>2026-05-02T14:48:43.024Z</time></trkpt><trkpt lat="45.60505421320513" lon="10.11510238529141"><ele>184.0</ele><time>2026-05-02T14:48:46.024Z</time></trkpt><trkpt lat="45.605101193007705" lon="10.115194235348547"><ele>184.0</ele><time>2026-05-02T14:48:49.024Z</time></trkpt><trkpt lat="45.605151687631505" lon="10.115285868940823"><ele>184.66666666666669</ele><time>2026-05-02T14:48:52.024Z</time></trkpt><trkpt lat="45.605188745233576" lon="10.115396612719593"><ele>185.33333333333334</ele><time>2026-05-02T14:48:55.024Z</time></trkpt><trkpt lat="45.60522419064334" lon="10.11550532463078"><ele>186.0</ele><time>2026-05-02T14:48:58.024Z</time></trkpt><trkpt lat="45.605254199482" lon="10.11560978884224"><ele>186.66666666666666</ele><time>2026-05-02T14:49:01.024Z</time></trkpt><trkpt lat="45.605299860734455" lon="10.115718310084873"><ele>187.33333333333331</ele><time>2026-05-02T14:49:04.024Z</time></trkpt><trkpt lat="45.60535044669034" lon="10.115809178165911"><ele>188.0</ele><time>2026-05-02T14:49:07.024Z</time></trkpt><trkpt lat="45.6053939784152" lon="10.115901067028503"><ele>188.0</ele><time>2026-05-02T14:49:10.024Z</time></trkpt><trkpt lat="45.60543252593803" lon="10.115988222687575"><ele>188.0</ele><time>2026-05-02T14:49:13.024Z</time></trkpt><trkpt lat="45.60547571329538" lon="10.116078488860937"><ele>188.0</ele><time>2026-05-02T14:49:16.024Z</time></trkpt><trkpt lat="45.60552477073275" lon="10.116161720363921"><ele>188.0</ele><time>2026-05-02T14:49:19.024Z</time></trkpt><trkpt lat="45.60555507734655" lon="10.116271475307665"><ele>188.0</ele><time>2026-05-02T14:49:22.024Z</time></trkpt><trkpt lat="45.60559676639787" lon="10.116363345434664"><ele>188.0</ele><time>2026-05-02T14:49:25.024Z</time></trkpt><trkpt lat="45.605648400128864" lon="10.116447354454788"><ele>188.0</ele><time>2026-05-02T14:49:28.025Z</time></trkpt><trkpt lat="45.60567865289143" lon="10.116556595349737"><ele>188.0</ele><time>2026-05-02T14:49:31.025Z</time></trkpt><trkpt lat="45.605664967147916" lon="10.11667057511477"><ele>188.0</ele><time>2026-05-02T14:49:34.025Z</time></trkpt><trkpt lat="45.60560287118734" lon="10.116753898771297"><ele>188.0</ele><time>2026-05-02T14:49:37.025Z</time></trkpt><trkpt lat="45.60554936480302" lon="10.116822605223476"><ele>188.0</ele><time>2026-05-02T14:49:40.025Z</time></trkpt><trkpt lat="45.60556211971434" lon="10.116945288380903"><ele>188.0</ele><time>2026-05-02T14:49:43.025Z</time></trkpt><trkpt lat="45.60560877236533" lon="10.117050683026587"><ele>188.33333333333331</ele><time>2026-05-02T14:49:46.01Z</time></trkpt><trkpt lat="45.605613326902024" lon="10.117154704317722"><ele>188.66666666666666</ele><time>2026-05-02T14:49:49.01Z</time></trkpt><trkpt lat="45.605623335184305" lon="10.117262031375708"><ele>189.0</ele><time>2026-05-02T14:49:52.01Z</time></trkpt><trkpt lat="45.60568383630567" lon="10.117306337634705"><ele>189.33333333333334</ele><time>2026-05-02T14:49:54.011Z</time></trkpt><trkpt lat="45.60577022104703" lon="10.11732794862887"><ele>189.66666666666669</ele><time>2026-05-02T14:49:57.011Z</time></trkpt><trkpt lat="45.605807070852116" lon="10.117436785267795"><ele>190.0</ele><time>2026-05-02T14:50:00.011Z</time></trkpt><trkpt lat="45.605850027649865" lon="10.117534419850159"><ele>190.0</ele><time>2026-05-02T14:50:03.011Z</time></trkpt><trkpt lat="45.60589907243773" lon="10.117637924262022"><ele>190.0</ele><time>2026-05-02T14:50:06.011Z</time></trkpt><trkpt lat="45.60594388902112" lon="10.117732569090053"><ele>190.0</ele><time>2026-05-02T14:50:09.011Z</time></trkpt><trkpt lat="45.60599075001037" lon="10.117813770859485"><ele>190.0</ele><time>2026-05-02T14:50:12.011Z</time></trkpt><trkpt lat="45.60604619357509" lon="10.11789250437297"><ele>190.0</ele><time>2026-05-02T14:50:15.011Z</time></trkpt><trkpt lat="45.606100921168746" lon="10.117979402306936"><ele>190.0</ele><time>2026-05-02T14:50:18.011Z</time></trkpt><trkpt lat="45.606158985842846" lon="10.118052843749977"><ele>189.83333333333334</ele><time>2026-05-02T14:50:21.011Z</time></trkpt><trkpt lat="45.60621623867423" lon="10.118126729004766"><ele>189.66666666666669</ele><time>2026-05-02T14:50:24.011Z</time></trkpt><trkpt lat="45.60627011380879" lon="10.118200527856672"><ele>189.5</ele><time>2026-05-02T14:50:27.011Z</time></trkpt><trkpt lat="45.606324216657164" lon="10.118284958721986"><ele>189.33333333333334</ele><time>2026-05-02T14:50:30.011Z</time></trkpt><trkpt lat="45.60637264055098" lon="10.118376215852601"><ele>189.16666666666666</ele><time>2026-05-02T14:50:33.01Z</time></trkpt><trkpt lat="45.606423924687626" lon="10.118471504505404"><ele>189.0</ele><time>2026-05-02T14:50:36.01Z</time></trkpt><trkpt lat="45.60649797736364" lon="10.118526346745435"><ele>189.66666666666666</ele><time>2026-05-02T14:50:39.009Z</time></trkpt><trkpt lat="45.60657803039772" lon="10.118529616612612"><ele>190.33333333333331</ele><time>2026-05-02T14:50:42.01Z</time></trkpt><trkpt lat="45.606641023575854" lon="10.11859109044798"><ele>191.0</ele><time>2026-05-02T14:50:45.01Z</time></trkpt><trkpt lat="45.606711874146264" lon="10.11865283605513"><ele>191.66666666666666</ele><time>2026-05-02T14:50:48.01Z</time></trkpt><trkpt lat="45.60677075260422" lon="10.118728981326177"><ele>192.33333333333331</ele><time>2026-05-02T14:50:51.01Z</time></trkpt><trkpt lat="45.606828840855535" lon="10.118804773947423"><ele>193.0</ele><time>2026-05-02T14:50:54.01Z</time></trkpt><trkpt lat="45.60688507780624" lon="10.11888643069268"><ele>192.99999999999997</ele><time>2026-05-02T14:50:57.01Z</time></trkpt><trkpt lat="45.60694494766809" lon="10.11896493635039"><ele>193.0</ele><time>2026-05-02T14:51:00.01Z</time></trkpt><trkpt lat="45.607011445708345" lon="10.119030973364124"><ele>193.0</ele><time>2026-05-02T14:51:03.011Z</time></trkpt><trkpt lat="45.60707890803949" lon="10.119081090207446"><ele>193.0</ele><time>2026-05-02T14:51:06.011Z</time></trkpt><trkpt lat="45.60715308011211" lon="10.119121726718948"><ele>192.99999999999997</ele><time>2026-05-02T14:51:09.011Z</time></trkpt><trkpt lat="45.60723205429517" lon="10.119133121711007"><ele>193.0</ele><time>2026-05-02T14:51:12.011Z</time></trkpt><trkpt lat="45.60730871051051" lon="10.119151237792888"><ele>192.99999999999997</ele><time>2026-05-02T14:51:15.011Z</time></trkpt><trkpt lat="45.607385353806585" lon="10.119173754126205"><ele>193.0</ele><time>2026-05-02T14:51:18.011Z</time></trkpt><trkpt lat="45.607461523257214" lon="10.119206489776976"><ele>193.0</ele><time>2026-05-02T14:51:21.011Z</time></trkpt><trkpt lat="45.607537896543434" lon="10.119239480437473"><ele>193.0</ele><time>2026-05-02T14:51:24.011Z</time></trkpt><trkpt lat="45.60761395410004" lon="10.119278133771266"><ele>192.99999999999997</ele><time>2026-05-02T14:51:27.011Z</time></trkpt><trkpt lat="45.60769140061307" lon="10.119309867863304"><ele>193.0</ele><time>2026-05-02T14:51:30.011Z</time></trkpt><trkpt lat="45.60776344620316" lon="10.119340909574758"><ele>192.66666666666666</ele><time>2026-05-02T14:51:33.011Z</time></trkpt><trkpt lat="45.6078364651314" lon="10.119367775906209"><ele>192.33333333333331</ele><time>2026-05-02T14:51:36.011Z</time></trkpt><trkpt lat="45.60791070934414" lon="10.119395706248383"><ele>192.0</ele><time>2026-05-02T14:51:39.011Z</time></trkpt><trkpt lat="45.60798009864318" lon="10.119445548132237"><ele>191.66666666666666</ele><time>2026-05-02T14:51:42.011Z</time></trkpt><trkpt lat="45.608044476766864" lon="10.11951734668393"><ele>191.33333333333331</ele><time>2026-05-02T14:51:45.011Z</time></trkpt><trkpt lat="45.60811456866618" lon="10.119557483737754"><ele>191.0</ele><time>2026-05-02T14:51:48.011Z</time></trkpt><trkpt lat="45.60818639579488" lon="10.11960411592258"><ele>191.0</ele><time>2026-05-02T14:51:51.012Z</time></trkpt><trkpt lat="45.60825342338393" lon="10.119646263359533"><ele>191.0</ele><time>2026-05-02T14:51:54.012Z</time></trkpt><trkpt lat="45.60832467984623" lon="10.119682626833214"><ele>191.0</ele><time>2026-05-02T14:51:57.012Z</time></trkpt><trkpt lat="45.60839516231238" lon="10.119654173197826"><ele>191.0</ele><time>2026-05-02T14:52:00.012Z</time></trkpt><trkpt lat="45.60842856460481" lon="10.119532769264518"><ele>191.0</ele><time>2026-05-02T14:52:03.012Z</time></trkpt><trkpt lat="45.608428721145515" lon="10.119426625316098"><ele>191.0</ele><time>2026-05-02T14:52:06.012Z</time></trkpt><trkpt lat="45.60836795142165" lon="10.119354450317632"><ele>191.0</ele><time>2026-05-02T14:52:09.012Z</time></trkpt><trkpt lat="45.6083124046422" lon="10.119273877729228"><ele>191.0</ele><time>2026-05-02T14:52:12.012Z</time></trkpt><trkpt lat="45.60828588803993" lon="10.119168203763186"><ele>191.0</ele><time>2026-05-02T14:52:15.012Z</time></trkpt><trkpt lat="45.60825948417802" lon="10.119079776032224"><ele>191.0</ele><time>2026-05-02T14:52:18.012Z</time></trkpt><trkpt lat="45.60824700303226" lon="10.118987502403261"><ele>191.0</ele><time>2026-05-02T14:52:22.012Z</time></trkpt><trkpt lat="45.608306625660965" lon="10.118921982012948"><ele>191.0</ele><time>2026-05-02T14:52:26.012Z</time></trkpt><trkpt lat="45.60838464636821" lon="10.118906574044253"><ele>191.0</ele><time>2026-05-02T14:52:29.012Z</time></trkpt><trkpt lat="45.60843482250514" lon="10.118841900006585"><ele>191.5</ele><time>2026-05-02T14:52:32.012Z</time></trkpt><trkpt lat="45.60847067006961" lon="10.118739698718368"><ele>192.0</ele><time>2026-05-02T14:52:35.012Z</time></trkpt><trkpt lat="45.60849888956952" lon="10.118635093603833"><ele>192.5</ele><time>2026-05-02T14:52:38.011Z</time></trkpt><trkpt lat="45.608521764752815" lon="10.118524860484984"><ele>193.0</ele><time>2026-05-02T14:52:41.011Z</time></trkpt><trkpt lat="45.6085331712004" lon="10.11841372180177"><ele>193.50000000000003</ele><time>2026-05-02T14:52:44.011Z</time></trkpt><trkpt lat="45.608549757415496" lon="10.118306713966952"><ele>194.0</ele><time>2026-05-02T14:52:47.011Z</time></trkpt><trkpt lat="45.608566222178396" lon="10.118197782756654"><ele>194.50000000000003</ele><time>2026-05-02T14:52:50.011Z</time></trkpt><trkpt lat="45.60857832088326" lon="10.118091660443174"><ele>195.0</ele><time>2026-05-02T14:52:53.011Z</time></trkpt><trkpt lat="45.608598316931136" lon="10.117973900250325"><ele>195.5</ele><time>2026-05-02T14:52:56.011Z</time></trkpt><trkpt lat="45.60860757572212" lon="10.117865003924726"><ele>196.0</ele><time>2026-05-02T14:52:59.011Z</time></trkpt><trkpt lat="45.60862151951977" lon="10.117754289196291"><ele>196.50000000000003</ele><time>2026-05-02T14:53:02.011Z</time></trkpt><trkpt lat="45.608633856953354" lon="10.117661811959929"><ele>197.0</ele><time>2026-05-02T14:53:05.011Z</time></trkpt><trkpt lat="45.60864988646923" lon="10.117539198550359"><ele>197.0</ele><time>2026-05-02T14:53:09.011Z</time></trkpt><trkpt lat="45.60863287080707" lon="10.117452287436025"><ele>197.0</ele><time>2026-05-02T14:53:11.011Z</time></trkpt><trkpt lat="45.60858576436268" lon="10.117391337926412"><ele>197.0</ele><time>2026-05-02T14:53:13.011Z</time></trkpt><trkpt lat="45.60853205178574" lon="10.117335233191657"><ele>197.0</ele><time>2026-05-02T14:53:15.011Z</time></trkpt><trkpt lat="45.608468134944765" lon="10.117263285350528"><ele>197.0</ele><time>2026-05-02T14:53:18.011Z</time></trkpt><trkpt lat="45.60839873851331" lon="10.117193858568"><ele>197.0</ele><time>2026-05-02T14:53:21.011Z</time></trkpt><trkpt lat="45.60833261162885" lon="10.117134493517353"><ele>197.0</ele><time>2026-05-02T14:53:24.012Z</time></trkpt><trkpt lat="45.60827376055472" lon="10.117055253616474"><ele>197.00000000000003</ele><time>2026-05-02T14:53:27.012Z</time></trkpt><trkpt lat="45.6082081305985" lon="10.117000765208786"><ele>197.0</ele><time>2026-05-02T14:53:30.012Z</time></trkpt><trkpt lat="45.6081243036663" lon="10.116968516526478"><ele>197.0</ele><time>2026-05-02T14:53:33.012Z</time></trkpt><trkpt lat="45.608051673755355" lon="10.116918467775841"><ele>197.0</ele><time>2026-05-02T14:53:36.012Z</time></trkpt><trkpt lat="45.60798369392385" lon="10.116846902275702"><ele>197.00000000000003</ele><time>2026-05-02T14:53:39.012Z</time></trkpt><trkpt lat="45.60789719802891" lon="10.116786183435703"><ele>197.0</ele><time>2026-05-02T14:53:42.012Z</time></trkpt><trkpt lat="45.60783144251989" lon="10.116733044034945"><ele>196.16666666666669</ele><time>2026-05-02T14:53:45.012Z</time></trkpt><trkpt lat="45.60775570498402" lon="10.116686068563494"><ele>195.33333333333334</ele><time>2026-05-02T14:53:48.012Z</time></trkpt><trkpt lat="45.60767664235206" lon="10.116661686119707"><ele>194.5</ele><time>2026-05-02T14:53:51.012Z</time></trkpt><trkpt lat="45.60760706268591" lon="10.11662185038964"><ele>193.66666666666669</ele><time>2026-05-02T14:53:54.012Z</time></trkpt><trkpt lat="45.60761752544408" lon="10.116519371263323"><ele>192.83333333333334</ele><time>2026-05-02T14:53:56.012Z</time></trkpt><trkpt lat="45.60767887711328" lon="10.11648018799081"><ele>192.0</ele><time>2026-05-02T14:53:58.012Z</time></trkpt><trkpt lat="45.607742813334134" lon="10.116433937451314"><ele>191.7142857142857</ele><time>2026-05-02T14:54:01.012Z</time></trkpt><trkpt lat="45.607814649299435" lon="10.11636841534921"><ele>191.42857142857142</ele><time>2026-05-02T14:54:05.012Z</time></trkpt><trkpt lat="45.60787882376325" lon="10.11633105026597"><ele>191.14285714285714</ele><time>2026-05-02T14:54:08.012Z</time></trkpt><trkpt lat="45.60793478909713" lon="10.116283035430026"><ele>190.85714285714283</ele><time>2026-05-02T14:54:11.012Z</time></trkpt><trkpt lat="45.60799678033031" lon="10.116250554926033"><ele>190.57142857142858</ele><time>2026-05-02T14:54:14.013Z</time></trkpt><trkpt lat="45.60806269277831" lon="10.116198976440813"><ele>190.28571428571428</ele><time>2026-05-02T14:54:17.013Z</time></trkpt><trkpt lat="45.60813087394334" lon="10.116154848345033"><ele>190.0</ele><time>2026-05-02T14:54:20.013Z</time></trkpt><trkpt lat="45.60819243711859" lon="10.116105753948446"><ele>191.33333333333334</ele><time>2026-05-02T14:54:23.013Z</time></trkpt><trkpt lat="45.60825227729256" lon="10.116056355924348"><ele>192.66666666666669</ele><time>2026-05-02T14:54:26.013Z</time></trkpt><trkpt lat="45.608316073559564" lon="10.115992010779978"><ele>194.0</ele><time>2026-05-02T14:54:29.013Z</time></trkpt><trkpt lat="45.60838252373751" lon="10.115941547338275"><ele>195.33333333333334</ele><time>2026-05-02T14:54:32.013Z</time></trkpt><trkpt lat="45.60845147740137" lon="10.115890381476996"><ele>196.66666666666666</ele><time>2026-05-02T14:54:35.013Z</time></trkpt><trkpt lat="45.60852145339441" lon="10.115853996846415"><ele>198.0</ele><time>2026-05-02T14:54:38.013Z</time></trkpt><trkpt lat="45.60853911839075" lon="10.115748172196364"><ele>197.83333333333334</ele><time>2026-05-02T14:54:41.013Z</time></trkpt><trkpt lat="45.60853037838135" lon="10.115639018880408"><ele>197.66666666666669</ele><time>2026-05-02T14:54:45.012Z</time></trkpt><trkpt lat="45.608509121931505" lon="10.115533046645249"><ele>197.5</ele><time>2026-05-02T14:54:48.012Z</time></trkpt><trkpt lat="45.60848031450715" lon="10.115430693112632"><ele>197.33333333333334</ele><time>2026-05-02T14:54:51.012Z</time></trkpt><trkpt lat="45.608451691887296" lon="10.115332122815397"><ele>197.16666666666669</ele><time>2026-05-02T14:54:54.012Z</time></trkpt><trkpt lat="45.60842841916364" lon="10.115235274300666"><ele>197.0</ele><time>2026-05-02T14:54:57.012Z</time></trkpt><trkpt lat="45.60840475850837" lon="10.115127249932561"><ele>197.00000000000003</ele><time>2026-05-02T14:55:00.012Z</time></trkpt><trkpt lat="45.608378696420836" lon="10.115019995502111"><ele>197.0</ele><time>2026-05-02T14:55:03.012Z</time></trkpt><trkpt lat="45.608346183913135" lon="10.114911371068825"><ele>197.0</ele><time>2026-05-02T14:55:06.012Z</time></trkpt><trkpt lat="45.60831041160856" lon="10.114806445345275"><ele>197.0</ele><time>2026-05-02T14:55:09.012Z</time></trkpt><trkpt lat="45.60826804790981" lon="10.114709476821321"><ele>197.00000000000003</ele><time>2026-05-02T14:55:12.012Z</time></trkpt><trkpt lat="45.60821076295832" lon="10.11461770569564"><ele>197.0</ele><time>2026-05-02T14:55:15.012Z</time></trkpt><trkpt lat="45.608152780238264" lon="10.114542138177004"><ele>197.00000000000003</ele><time>2026-05-02T14:55:18.012Z</time></trkpt><trkpt lat="45.608088666120246" lon="10.114475380604896"><ele>197.0</ele><time>2026-05-02T14:55:21.012Z</time></trkpt><trkpt lat="45.60803689041127" lon="10.11439223237534"><ele>197.0</ele><time>2026-05-02T14:55:24.012Z</time></trkpt><trkpt lat="45.60798679216694" lon="10.114306965321603"><ele>197.0</ele><time>2026-05-02T14:55:27.012Z</time></trkpt><trkpt lat="45.607927312070956" lon="10.11423387395185"><ele>197.00000000000003</ele><time>2026-05-02T14:55:30.012Z</time></trkpt><trkpt lat="45.60787216765619" lon="10.114149903969963"><ele>197.0</ele><time>2026-05-02T14:55:33.013Z</time></trkpt><trkpt lat="45.60781542882014" lon="10.114060237797963"><ele>197.0</ele><time>2026-05-02T14:55:36.013Z</time></trkpt><trkpt lat="45.607754611201926" lon="10.114004135032843"><ele>197.0</ele><time>2026-05-02T14:55:39.013Z</time></trkpt><trkpt lat="45.607704824989106" lon="10.11392624771598"><ele>197.0</ele><time>2026-05-02T14:55:42.013Z</time></trkpt><trkpt lat="45.60766219378813" lon="10.113837458437564"><ele>197.0</ele><time>2026-05-02T14:55:45.013Z</time></trkpt><trkpt lat="45.60761758248628" lon="10.113750081256134"><ele>197.0</ele><time>2026-05-02T14:55:48.013Z</time></trkpt><trkpt lat="45.607573622853" lon="10.11366852770666"><ele>197.0</ele><time>2026-05-02T14:55:51.013Z</time></trkpt><trkpt lat="45.607537342632504" lon="10.11357630894872"><ele>197.0</ele><time>2026-05-02T14:55:54.013Z</time></trkpt><trkpt lat="45.60750170961833" lon="10.113471431130325"><ele>197.00000000000003</ele><time>2026-05-02T14:55:57.013Z</time></trkpt><trkpt lat="45.6074672629236" lon="10.11336559205521"><ele>197.0</ele><time>2026-05-02T14:56:00.013Z</time></trkpt><trkpt lat="45.60743214527571" lon="10.113276412800472"><ele>197.0</ele><time>2026-05-02T14:56:03.013Z</time></trkpt><trkpt lat="45.60739665157103" lon="10.113165755935114"><ele>197.0</ele><time>2026-05-02T14:56:06.013Z</time></trkpt><trkpt lat="45.60735651104712" lon="10.113066895393464"><ele>197.00000000000003</ele><time>2026-05-02T14:56:09.013Z</time></trkpt><trkpt lat="45.607326621982914" lon="10.112961143782682"><ele>197.0</ele><time>2026-05-02T14:56:12.013Z</time></trkpt><trkpt lat="45.6072995477504" lon="10.112851454212004"><ele>198.50000000000003</ele><time>2026-05-02T14:56:15.013Z</time></trkpt><trkpt lat="45.60727644159296" lon="10.112744388533681"><ele>200.0</ele><time>2026-05-02T14:56:18.013Z</time></trkpt><trkpt lat="45.607261009931115" lon="10.112621308878955"><ele>201.5</ele><time>2026-05-02T14:56:21.014Z</time></trkpt><trkpt lat="45.607247166338176" lon="10.112503774140363"><ele>203.0</ele><time>2026-05-02T14:56:24.014Z</time></trkpt><trkpt lat="45.607235422276965" lon="10.112380397303252"><ele>204.50000000000003</ele><time>2026-05-02T14:56:27.014Z</time></trkpt><trkpt lat="45.60722898148401" lon="10.112266888511131"><ele>206.0</ele><time>2026-05-02T14:56:30.014Z</time></trkpt><trkpt lat="45.60722240151299" lon="10.112160748620534"><ele>206.16666666666669</ele><time>2026-05-02T14:56:33.014Z</time></trkpt><trkpt lat="45.60721810949436" lon="10.11204884210664"><ele>206.33333333333334</ele><time>2026-05-02T14:56:36.014Z</time></trkpt><trkpt lat="45.60720583202839" lon="10.111945317682466"><ele>206.5</ele><time>2026-05-02T14:56:39.014Z</time></trkpt><trkpt lat="45.60719303597706" lon="10.111833746424292"><ele>206.66666666666669</ele><time>2026-05-02T14:56:42.014Z</time></trkpt><trkpt lat="45.60717702377944" lon="10.111731319632131"><ele>206.83333333333334</ele><time>2026-05-02T14:56:45.014Z</time></trkpt><trkpt lat="45.607154662570714" lon="10.111630921190121"><ele>207.0</ele><time>2026-05-02T14:56:48.014Z</time></trkpt><trkpt lat="45.607125865246736" lon="10.111533703147952"><ele>206.0</ele><time>2026-05-02T14:56:51.013Z</time></trkpt><trkpt lat="45.607104997642196" lon="10.111429844960238"><ele>205.0</ele><time>2026-05-02T14:56:54.014Z</time></trkpt><trkpt lat="45.60707639971253" lon="10.11132838054503"><ele>204.0</ele><time>2026-05-02T14:56:57.013Z</time></trkpt><trkpt lat="45.607057082741434" lon="10.111220686080836"><ele>203.0</ele><time>2026-05-02T14:57:00.013Z</time></trkpt><trkpt lat="45.607029145050255" lon="10.111119289912065"><ele>202.0</ele><time>2026-05-02T14:57:03.014Z</time></trkpt><trkpt lat="45.6070006561917" lon="10.111012863880864"><ele>201.0</ele><time>2026-05-02T14:57:06.014Z</time></trkpt><trkpt lat="45.606959703927465" lon="10.110924470945983"><ele>200.0</ele><time>2026-05-02T14:57:09.014Z</time></trkpt><trkpt lat="45.60693269190617" lon="10.110835729702458"><ele>199.0</ele><time>2026-05-02T14:57:12.014Z</time></trkpt><trkpt lat="45.606883832611196" lon="10.110759841757545"><ele>198.0</ele><time>2026-05-02T14:57:15.014Z</time></trkpt><trkpt lat="45.6068264999736" lon="10.110685449956119"><ele>197.0</ele><time>2026-05-02T14:57:18.014Z</time></trkpt><trkpt lat="45.60677586535927" lon="10.110626318392006"><ele>196.0</ele><time>2026-05-02T14:57:21.014Z</time></trkpt><trkpt lat="45.60672282435984" lon="10.110539066850578"><ele>195.0</ele><time>2026-05-02T14:57:24.014Z</time></trkpt><trkpt lat="45.60666958783886" lon="10.110476978168712"><ele>194.0</ele><time>2026-05-02T14:57:27.014Z</time></trkpt><trkpt lat="45.60660744661447" lon="10.110427128673832"><ele>194.0</ele><time>2026-05-02T14:57:30.014Z</time></trkpt><trkpt lat="45.60654495640342" lon="10.110371022149673"><ele>194.0</ele><time>2026-05-02T14:57:33.014Z</time></trkpt><trkpt lat="45.606486639441556" lon="10.110325580556342"><ele>194.0</ele><time>2026-05-02T14:57:36.015Z</time></trkpt><trkpt lat="45.606421940382646" lon="10.11028289910787"><ele>194.0</ele><time>2026-05-02T14:57:39.015Z</time></trkpt><trkpt lat="45.606360929749414" lon="10.110238484135206"><ele>194.0</ele><time>2026-05-02T14:57:42.015Z</time></trkpt><trkpt lat="45.60629160072399" lon="10.110212515454785"><ele>194.0</ele><time>2026-05-02T14:57:45.015Z</time></trkpt><trkpt lat="45.60624214013655" lon="10.11012881967412"><ele>194.0</ele><time>2026-05-02T14:57:48.015Z</time></trkpt><trkpt lat="45.606227530914666" lon="10.110018341840734"><ele>194.33333333333334</ele><time>2026-05-02T14:57:50.015Z</time></trkpt><trkpt lat="45.60620080119694" lon="10.10990468676815"><ele>194.66666666666669</ele><time>2026-05-02T14:57:53.015Z</time></trkpt><trkpt lat="45.606175452896096" lon="10.109800230388963"><ele>195.0</ele><time>2026-05-02T14:57:56.015Z</time></trkpt><trkpt lat="45.606126192595625" lon="10.109704755588663"><ele>195.33333333333331</ele><time>2026-05-02T14:57:59.015Z</time></trkpt><trkpt lat="45.606057044600135" lon="10.109664398681723"><ele>195.66666666666666</ele><time>2026-05-02T14:58:02.015Z</time></trkpt><trkpt lat="45.605988699540845" lon="10.10963230443695"><ele>196.0</ele><time>2026-05-02T14:58:05.015Z</time></trkpt><trkpt lat="45.60590817559297" lon="10.109606038234501"><ele>196.0</ele><time>2026-05-02T14:58:09.015Z</time></trkpt><trkpt lat="45.60583943178569" lon="10.109580442450026"><ele>196.0</ele><time>2026-05-02T14:58:12.015Z</time></trkpt><trkpt lat="45.605774130375224" lon="10.109552521753729"><ele>196.0</ele><time>2026-05-02T14:58:15.015Z</time></trkpt><trkpt lat="45.60571002091043" lon="10.109541301780375"><ele>196.0</ele><time>2026-05-02T14:58:18.015Z</time></trkpt><trkpt lat="45.60563515033126" lon="10.109478410999863"><ele>196.0</ele><time>2026-05-02T14:58:21.015Z</time></trkpt><trkpt lat="45.60558274073486" lon="10.109428389491084"><ele>196.0</ele><time>2026-05-02T14:58:23.015Z</time></trkpt><trkpt lat="45.60550379076964" lon="10.109388400005116"><ele>196.0</ele><time>2026-05-02T14:58:26.016Z</time></trkpt><trkpt lat="45.60542885166506" lon="10.109352296576992"><ele>195.99999999999997</ele><time>2026-05-02T14:58:29.016Z</time></trkpt><trkpt lat="45.60534453976362" lon="10.109356665213513"><ele>196.0</ele><time>2026-05-02T14:58:32.016Z</time></trkpt><trkpt lat="45.60526553856867" lon="10.10935272381681"><ele>196.0</ele><time>2026-05-02T14:58:35.016Z</time></trkpt><trkpt lat="45.60519927221981" lon="10.109402330563793"><ele>196.0</ele><time>2026-05-02T14:58:38.016Z</time></trkpt><trkpt lat="45.60513404961156" lon="10.109462103781711"><ele>195.99999999999997</ele><time>2026-05-02T14:58:41.016Z</time></trkpt><trkpt lat="45.605066229239725" lon="10.109518722185273"><ele>196.0</ele><time>2026-05-02T14:58:44.016Z</time></trkpt><trkpt lat="45.605021164744066" lon="10.109609251738553"><ele>194.66666666666666</ele><time>2026-05-02T14:58:47.016Z</time></trkpt><trkpt lat="45.60499141621613" lon="10.109703408844167"><ele>193.33333333333331</ele><time>2026-05-02T14:58:50.016Z</time></trkpt><trkpt lat="45.60497305243267" lon="10.10981254743063"><ele>192.0</ele><time>2026-05-02T14:58:53.016Z</time></trkpt><trkpt lat="45.60493574553727" lon="10.109905220878"><ele>190.66666666666666</ele><time>2026-05-02T14:58:56.014Z</time></trkpt><trkpt lat="45.60489024484135" lon="10.10999248670788"><ele>189.33333333333331</ele><time>2026-05-02T14:58:59.015Z</time></trkpt><trkpt lat="45.60483645544153" lon="10.110072212412767"><ele>188.0</ele><time>2026-05-02T14:59:02.014Z</time></trkpt><trkpt lat="45.60477927660889" lon="10.110151485611183"><ele>187.5</ele><time>2026-05-02T14:59:05.015Z</time></trkpt><trkpt lat="45.60472690084894" lon="10.110229623267312"><ele>187.0</ele><time>2026-05-02T14:59:08.014Z</time></trkpt><trkpt lat="45.604668522734755" lon="10.1103042087161"><ele>186.5</ele><time>2026-05-02T14:59:11.014Z</time></trkpt><trkpt lat="45.6046188287993" lon="10.110376229594875"><ele>186.0</ele><time>2026-05-02T14:59:14.014Z</time></trkpt><trkpt lat="45.604568623671916" lon="10.110461697199106"><ele>185.5</ele><time>2026-05-02T14:59:17.015Z</time></trkpt><trkpt lat="45.60453740019998" lon="10.110556415782016"><ele>185.0</ele><time>2026-05-02T14:59:20.015Z</time></trkpt><trkpt lat="45.60450338575608" lon="10.110669592291943"><ele>184.5</ele><time>2026-05-02T14:59:23.015Z</time></trkpt><trkpt lat="45.604477127687204" lon="10.110769815644387"><ele>184.0</ele><time>2026-05-02T14:59:26.015Z</time></trkpt><trkpt lat="45.60444425411939" lon="10.110867403412264"><ele>183.5</ele><time>2026-05-02T14:59:29.015Z</time></trkpt><trkpt lat="45.60441344248803" lon="10.110967465921075"><ele>183.0</ele><time>2026-05-02T14:59:32.015Z</time></trkpt><trkpt lat="45.6043911549529" lon="10.111082588408433"><ele>182.5</ele><time>2026-05-02T14:59:36.015Z</time></trkpt><trkpt lat="45.604362966643336" lon="10.111191369536623"><ele>182.0</ele><time>2026-05-02T14:59:39.015Z</time></trkpt><trkpt lat="45.60433823373354" lon="10.111287116653948"><ele>182.0</ele><time>2026-05-02T14:59:42.015Z</time></trkpt><trkpt lat="45.60431366928377" lon="10.111378287719427"><ele>182.0</ele><time>2026-05-02T14:59:45.015Z</time></trkpt><trkpt lat="45.60427332157711" lon="10.111479100800553"><ele>182.0</ele><time>2026-05-02T14:59:48.015Z</time></trkpt><trkpt lat="45.60425396838935" lon="10.111575419059392"><ele>182.0</ele><time>2026-05-02T14:59:51.015Z</time></trkpt><trkpt lat="45.604250669776995" lon="10.11167534319169"><ele>182.0</ele><time>2026-05-02T14:59:54.015Z</time></trkpt><trkpt lat="45.60423676261801" lon="10.111769243466853"><ele>182.0</ele><time>2026-05-02T14:59:57.015Z</time></trkpt><trkpt lat="45.604214437708926" lon="10.111877044552594"><ele>182.0</ele><time>2026-05-02T15:00:00.015Z</time></trkpt><trkpt lat="45.60418579834886" lon="10.111980932879627"><ele>182.33333333333331</ele><time>2026-05-02T15:00:03.015Z</time></trkpt><trkpt lat="45.60415507794839" lon="10.112071668817757"><ele>182.66666666666666</ele><time>2026-05-02T15:00:06.016Z</time></trkpt><trkpt lat="45.60415479572314" lon="10.112179437343217"><ele>183.0</ele><time>2026-05-02T15:00:09.016Z</time></trkpt><trkpt lat="45.60408258313538" lon="10.11217804707577"><ele>183.33333333333334</ele><time>2026-05-02T15:00:11.016Z</time></trkpt><trkpt lat="45.604014799023076" lon="10.112248542937431"><ele>183.66666666666669</ele><time>2026-05-02T15:00:14.016Z</time></trkpt><trkpt lat="45.603934374304096" lon="10.11229920925932"><ele>184.0</ele><time>2026-05-02T15:00:17.016Z</time></trkpt><trkpt lat="45.60386452504249" lon="10.112281384738047"><ele>184.0</ele><time>2026-05-02T15:00:20.016Z</time></trkpt><trkpt lat="45.603778986911024" lon="10.11229766932063"><ele>184.0</ele><time>2026-05-02T15:00:23.016Z</time></trkpt><trkpt lat="45.60369903610544" lon="10.112291305553923"><ele>184.0</ele><time>2026-05-02T15:00:26.016Z</time></trkpt><trkpt lat="45.60362701121551" lon="10.11227991839123"><ele>184.0</ele><time>2026-05-02T15:00:29.016Z</time></trkpt><trkpt lat="45.60356295382883" lon="10.1122396897355"><ele>184.0</ele><time>2026-05-02T15:00:32.016Z</time></trkpt><trkpt lat="45.603504938277204" lon="10.112181185735043"><ele>184.0</ele><time>2026-05-02T15:00:35.016Z</time></trkpt><trkpt lat="45.60343299632967" lon="10.112140517888456"><ele>183.33333333333334</ele><time>2026-05-02T15:00:38.016Z</time></trkpt><trkpt lat="45.60336057538568" lon="10.112092086397263"><ele>182.66666666666669</ele><time>2026-05-02T15:00:41.016Z</time></trkpt><trkpt lat="45.6032971455134" lon="10.112032544825398"><ele>182.0</ele><time>2026-05-02T15:00:44.016Z</time></trkpt><trkpt lat="45.6032160508557" lon="10.111983314686265"><ele>181.33333333333334</ele><time>2026-05-02T15:00:47.016Z</time></trkpt><trkpt lat="45.60313844858856" lon="10.111953574735248"><ele>180.66666666666666</ele><time>2026-05-02T15:00:50.016Z</time></trkpt><trkpt lat="45.603052422270366" lon="10.111966040399102"><ele>180.0</ele><time>2026-05-02T15:00:53.016Z</time></trkpt><trkpt lat="45.6030014341085" lon="10.112037383086303"><ele>180.0</ele><time>2026-05-02T15:00:56.017Z</time></trkpt><trkpt lat="45.60295997101036" lon="10.112119249125042"><ele>180.0</ele><time>2026-05-02T15:00:59.017Z</time></trkpt><trkpt lat="45.60291867165993" lon="10.112208439976076"><ele>180.0</ele><time>2026-05-02T15:01:02.016Z</time></trkpt><trkpt lat="45.602879849238406" lon="10.112291735753159"><ele>180.0</ele><time>2026-05-02T15:01:05.016Z</time></trkpt><trkpt lat="45.60284718451526" lon="10.112382774404681"><ele>180.0</ele><time>2026-05-02T15:01:08.016Z</time></trkpt><trkpt lat="45.60281314298846" lon="10.112472435634068"><ele>180.0</ele><time>2026-05-02T15:01:11.015Z</time></trkpt><trkpt lat="45.60277968100744" lon="10.11256438208804"><ele>180.0</ele><time>2026-05-02T15:01:14.016Z</time></trkpt><trkpt lat="45.602726769229" lon="10.112637893052709"><ele>180.66666666666666</ele><time>2026-05-02T15:01:17.015Z</time></trkpt><trkpt lat="45.602662757911475" lon="10.112602792085037"><ele>181.33333333333334</ele><time>2026-05-02T15:01:19.015Z</time></trkpt><trkpt lat="45.602596439751714" lon="10.11253466458469"><ele>182.0</ele><time>2026-05-02T15:01:22.016Z</time></trkpt><trkpt lat="45.602532459510805" lon="10.112460053265362"><ele>182.66666666666669</ele><time>2026-05-02T15:01:25.016Z</time></trkpt><trkpt lat="45.602492203151805" lon="10.112353429205672"><ele>183.33333333333334</ele><time>2026-05-02T15:01:28.016Z</time></trkpt><trkpt lat="45.60245991656608" lon="10.112248198737563"><ele>184.0</ele><time>2026-05-02T15:01:31.016Z</time></trkpt><trkpt lat="45.60240788997994" lon="10.11215535889454"><ele>184.0</ele><time>2026-05-02T15:01:34.016Z</time></trkpt><trkpt lat="45.602360008701595" lon="10.112059569640257"><ele>184.0</ele><time>2026-05-02T15:01:37.016Z</time></trkpt><trkpt lat="45.60230419765373" lon="10.111985239347344"><ele>184.0</ele><time>2026-05-02T15:01:40.016Z</time></trkpt><trkpt lat="45.60225002481257" lon="10.111900625847266"><ele>184.0</ele><time>2026-05-02T15:01:43.016Z</time></trkpt><trkpt lat="45.60218468281202" lon="10.111836764068526"><ele>184.0</ele><time>2026-05-02T15:01:46.016Z</time></trkpt><trkpt lat="45.60212295560508" lon="10.11176576001159"><ele>184.0</ele><time>2026-05-02T15:01:49.016Z</time></trkpt><trkpt lat="45.60206351272396" lon="10.111706041229539"><ele>184.0</ele><time>2026-05-02T15:01:52.016Z</time></trkpt><trkpt lat="45.602003070471554" lon="10.111642724293322"><ele>184.0</ele><time>2026-05-02T15:01:55.016Z</time></trkpt><trkpt lat="45.60194155192899" lon="10.111561306105083"><ele>184.0</ele><time>2026-05-02T15:01:58.016Z</time></trkpt><trkpt lat="45.60189683401452" lon="10.1114764894535"><ele>184.0</ele><time>2026-05-02T15:02:01.016Z</time></trkpt><trkpt lat="45.60182883393216" lon="10.11145765131307"><ele>184.0</ele><time>2026-05-02T15:02:04.016Z</time></trkpt><trkpt lat="45.60175684982809" lon="10.111471086618796"><ele>184.0</ele><time>2026-05-02T15:02:07.016Z</time></trkpt><trkpt lat="45.60168759491794" lon="10.111475050615342"><ele>184.0</ele><time>2026-05-02T15:02:10.017Z</time></trkpt><trkpt lat="45.60162204941242" lon="10.111471512533399"><ele>183.83333333333334</ele><time>2026-05-02T15:02:13.017Z</time></trkpt><trkpt lat="45.60154608192859" lon="10.111418656513125"><ele>183.66666666666669</ele><time>2026-05-02T15:02:16.017Z</time></trkpt><trkpt lat="45.60148055459025" lon="10.111342610901831"><ele>183.5</ele><time>2026-05-02T15:02:19.017Z</time></trkpt><trkpt lat="45.60145501657027" lon="10.11124303348606"><ele>183.33333333333334</ele><time>2026-05-02T15:02:21.017Z</time></trkpt><trkpt lat="45.60142976305746" lon="10.111154707645769"><ele>183.16666666666666</ele><time>2026-05-02T15:02:23.017Z</time></trkpt><trkpt lat="45.60138376579206" lon="10.111052618449216"><ele>183.0</ele><time>2026-05-02T15:02:26.017Z</time></trkpt><trkpt lat="45.60133286185954" lon="10.110949572364435"><ele>183.0</ele><time>2026-05-02T15:02:29.017Z</time></trkpt><trkpt lat="45.601274255399424" lon="10.110863837554719"><ele>183.0</ele><time>2026-05-02T15:02:32.017Z</time></trkpt><trkpt lat="45.601220645310256" lon="10.110777798050309"><ele>183.0</ele><time>2026-05-02T15:02:35.017Z</time></trkpt><trkpt lat="45.60114761315228" lon="10.11073048200547"><ele>183.0</ele><time>2026-05-02T15:02:38.017Z</time></trkpt><trkpt lat="45.60107971809827" lon="10.110675832620052"><ele>183.0</ele><time>2026-05-02T15:02:41.017Z</time></trkpt><trkpt lat="45.60100925602962" lon="10.11065299891725"><ele>183.0</ele><time>2026-05-02T15:02:44.017Z</time></trkpt><trkpt lat="45.60093655008406" lon="10.110630414024072"><ele>182.0</ele><time>2026-05-02T15:02:47.017Z</time></trkpt><trkpt lat="45.600860745948125" lon="10.11062086136422"><ele>181.0</ele><time>2026-05-02T15:02:50.017Z</time></trkpt><trkpt lat="45.60078874924483" lon="10.11059858720917"><ele>180.0</ele><time>2026-05-02T15:02:53.017Z</time></trkpt><trkpt lat="45.600718406648376" lon="10.110599655357827"><ele>179.0</ele><time>2026-05-02T15:02:56.017Z</time></trkpt><trkpt lat="45.60063239958907" lon="10.11060540700286"><ele>178.0</ele><time>2026-05-02T15:03:00.018Z</time></trkpt><trkpt lat="45.60056060912052" lon="10.110608006296353"><ele>177.0</ele><time>2026-05-02T15:03:03.018Z</time></trkpt><trkpt lat="45.60048778876473" lon="10.11060865863121"><ele>177.0</ele><time>2026-05-02T15:03:06.018Z</time></trkpt><trkpt lat="45.60040964228765" lon="10.110596303874315"><ele>177.0</ele><time>2026-05-02T15:03:09.017Z</time></trkpt><trkpt lat="45.60032580287609" lon="10.11059578775377"><ele>177.0</ele><time>2026-05-02T15:03:12.017Z</time></trkpt><trkpt lat="45.60023684082429" lon="10.110589490834878"><ele>177.0</ele><time>2026-05-02T15:03:15.016Z</time></trkpt><trkpt lat="45.60015592362699" lon="10.110609693941662"><ele>177.0</ele><time>2026-05-02T15:03:18.016Z</time></trkpt><trkpt lat="45.600076087197245" lon="10.110647039525546"><ele>177.0</ele><time>2026-05-02T15:03:21.017Z</time></trkpt><trkpt lat="45.600003604357376" lon="10.110685325559738"><ele>177.14285714285714</ele><time>2026-05-02T15:03:24.017Z</time></trkpt><trkpt lat="45.59993972049028" lon="10.110745707307789"><ele>177.28571428571428</ele><time>2026-05-02T15:03:27.017Z</time></trkpt><trkpt lat="45.59988828823063" lon="10.11082207762154"><ele>177.42857142857142</ele><time>2026-05-02T15:03:30.017Z</time></trkpt><trkpt lat="45.59984045508212" lon="10.110895145480717"><ele>177.57142857142856</ele><time>2026-05-02T15:03:33.017Z</time></trkpt><trkpt lat="45.599799508195424" lon="10.110975926489221"><ele>177.71428571428572</ele><time>2026-05-02T15:03:36.017Z</time></trkpt><trkpt lat="45.59976184342439" lon="10.11106591465502"><ele>177.85714285714283</ele><time>2026-05-02T15:03:39.017Z</time></trkpt><trkpt lat="45.59972306192273" lon="10.111149804669134"><ele>178.0</ele><time>2026-05-02T15:03:42.017Z</time></trkpt><trkpt lat="45.599689323056744" lon="10.111234741649389"><ele>178.0</ele><time>2026-05-02T15:03:45.017Z</time></trkpt><trkpt lat="45.599643949335615" lon="10.111313412438676"><ele>178.0</ele><time>2026-05-02T15:03:48.017Z</time></trkpt><trkpt lat="45.59957545727103" lon="10.111388765918687"><ele>178.0</ele><time>2026-05-02T15:03:51.018Z</time></trkpt><trkpt lat="45.59951511088424" lon="10.111445171041227"><ele>178.0</ele><time>2026-05-02T15:03:54.018Z</time></trkpt><trkpt lat="45.59943396249807" lon="10.111478033012203"><ele>178.0</ele><time>2026-05-02T15:03:57.018Z</time></trkpt><trkpt lat="45.59935079058137" lon="10.111493387155162"><ele>178.0</ele><time>2026-05-02T15:04:00.018Z</time></trkpt><trkpt lat="45.59926829770304" lon="10.111496604033043"><ele>177.5</ele><time>2026-05-02T15:04:03.018Z</time></trkpt><trkpt lat="45.59918722146342" lon="10.111505986828172"><ele>177.0</ele><time>2026-05-02T15:04:06.018Z</time></trkpt><trkpt lat="45.59911336391793" lon="10.111521038934212"><ele>176.5</ele><time>2026-05-02T15:04:09.018Z</time></trkpt><trkpt lat="45.599040137752894" lon="10.11151674625517"><ele>176.0</ele><time>2026-05-02T15:04:12.018Z</time></trkpt><trkpt lat="45.598964028340454" lon="10.111525958998884"><ele>175.5</ele><time>2026-05-02T15:04:15.018Z</time></trkpt><trkpt lat="45.598886729605326" lon="10.111501276126127"><ele>175.0</ele><time>2026-05-02T15:04:18.018Z</time></trkpt><trkpt lat="45.59880405374342" lon="10.111480805738754"><ele>175.0</ele><time>2026-05-02T15:04:21.018Z</time></trkpt><trkpt lat="45.5987349808275" lon="10.111443149517733"><ele>175.0</ele><time>2026-05-02T15:04:24.018Z</time></trkpt><trkpt lat="45.598655696174866" lon="10.111415350235422"><ele>175.0</ele><time>2026-05-02T15:04:27.018Z</time></trkpt><trkpt lat="45.59858644960759" lon="10.111371809204712"><ele>175.0</ele><time>2026-05-02T15:04:30.018Z</time></trkpt><trkpt lat="45.59852347887904" lon="10.111334032083601"><ele>175.0</ele><time>2026-05-02T15:04:33.018Z</time></trkpt><trkpt lat="45.59844533320313" lon="10.111296287052122"><ele>175.0</ele><time>2026-05-02T15:04:36.018Z</time></trkpt><trkpt lat="45.59837446618192" lon="10.111245676762554"><ele>174.85714285714286</ele><time>2026-05-02T15:04:39.019Z</time></trkpt><trkpt lat="45.598309465795296" lon="10.111180816075908"><ele>174.71428571428572</ele><time>2026-05-02T15:04:42.019Z</time></trkpt><trkpt lat="45.59825135849725" lon="10.111111663240155"><ele>174.57142857142856</ele><time>2026-05-02T15:04:45.019Z</time></trkpt><trkpt lat="45.59819552027082" lon="10.111062895111266"><ele>174.42857142857144</ele><time>2026-05-02T15:04:48.019Z</time></trkpt><trkpt lat="45.59813078012052" lon="10.111021522692173"><ele>174.28571428571428</ele><time>2026-05-02T15:04:51.019Z</time></trkpt><trkpt lat="45.59805763685264" lon="10.11102609156325"><ele>174.14285714285714</ele><time>2026-05-02T15:04:54.019Z</time></trkpt><trkpt lat="45.597977706969296" lon="10.110998877330033"><ele>174.0</ele><time>2026-05-02T15:04:57.019Z</time></trkpt><trkpt lat="45.59791299721381" lon="10.110978753095525"><ele>174.0</ele><time>2026-05-02T15:05:00.019Z</time></trkpt><trkpt lat="45.59784849473187" lon="10.110888982511938"><ele>174.0</ele><time>2026-05-02T15:05:03.019Z</time></trkpt><trkpt lat="45.59778927566692" lon="10.110792809176392"><ele>174.0</ele><time>2026-05-02T15:05:06.019Z</time></trkpt><trkpt lat="45.5977325778395" lon="10.110727574334843"><ele>174.0</ele><time>2026-05-02T15:05:09.019Z</time></trkpt><trkpt lat="45.597659355110046" lon="10.110767157284114"><ele>174.0</ele><time>2026-05-02T15:05:12.019Z</time></trkpt><trkpt lat="45.59762704730239" lon="10.11087526558713"><ele>174.0</ele><time>2026-05-02T15:05:16.018Z</time></trkpt><trkpt lat="45.59759328486317" lon="10.110961177896405"><ele>174.5</ele><time>2026-05-02T15:05:19.018Z</time></trkpt><trkpt lat="45.59753482218491" lon="10.111038179565002"><ele>175.0</ele><time>2026-05-02T15:05:22.018Z</time></trkpt><trkpt lat="45.59749841343365" lon="10.111127860047862"><ele>175.5</ele><time>2026-05-02T15:05:25.018Z</time></trkpt><trkpt lat="45.597469332555896" lon="10.111237247182201"><ele>176.0</ele><time>2026-05-02T15:05:29.018Z</time></trkpt><trkpt lat="45.597421230580196" lon="10.111362348611534"><ele>176.5</ele><time>2026-05-02T15:05:33.018Z</time></trkpt><trkpt lat="45.597357672350725" lon="10.111404665912099"><ele>177.0</ele><time>2026-05-02T15:05:35.018Z</time></trkpt><trkpt lat="45.59730178688496" lon="10.11149051820487"><ele>177.5</ele><time>2026-05-02T15:05:38.018Z</time></trkpt><trkpt lat="45.59726050173117" lon="10.111587618014523"><ele>178.0</ele><time>2026-05-02T15:05:41.019Z</time></trkpt><trkpt lat="45.59724058184867" lon="10.111690894794874"><ele>178.5</ele><time>2026-05-02T15:05:44.019Z</time></trkpt><trkpt lat="45.597218211421236" lon="10.111796722023701"><ele>179.0</ele><time>2026-05-02T15:05:47.019Z</time></trkpt><trkpt lat="45.59717533884679" lon="10.111877177292149"><ele>179.5</ele><time>2026-05-02T15:05:50.019Z</time></trkpt><trkpt lat="45.597126847666075" lon="10.111980178280174"><ele>180.0</ele><time>2026-05-02T15:05:53.019Z</time></trkpt><trkpt lat="45.59707064302661" lon="10.112062399594652"><ele>180.0</ele><time>2026-05-02T15:05:56.019Z</time></trkpt><trkpt lat="45.59700373986923" lon="10.11214735945079"><ele>180.0</ele><time>2026-05-02T15:05:59.019Z</time></trkpt><trkpt lat="45.596949167683235" lon="10.11223613412737"><ele>180.0</ele><time>2026-05-02T15:06:02.019Z</time></trkpt><trkpt lat="45.59692714540905" lon="10.112342522409369"><ele>180.0</ele><time>2026-05-02T15:06:05.019Z</time></trkpt><trkpt lat="45.59689982122661" lon="10.112451845065493"><ele>180.0</ele><time>2026-05-02T15:06:08.019Z</time></trkpt><trkpt lat="45.596886487312304" lon="10.1125655808078"><ele>180.0</ele><time>2026-05-02T15:06:11.019Z</time></trkpt><trkpt lat="45.59685717187808" lon="10.11266925331034"><ele>178.83333333333334</ele><time>2026-05-02T15:06:14.019Z</time></trkpt><trkpt lat="45.59685688950882" lon="10.112780203325652"><ele>177.66666666666666</ele><time>2026-05-02T15:06:17.019Z</time></trkpt><trkpt lat="45.596836039257276" lon="10.112888838536824"><ele>176.5</ele><time>2026-05-02T15:06:20.019Z</time></trkpt><trkpt lat="45.59683241430529" lon="10.113004648345846"><ele>175.33333333333331</ele><time>2026-05-02T15:06:23.019Z</time></trkpt><trkpt lat="45.596819874904675" lon="10.11311783500117"><ele>174.16666666666666</ele><time>2026-05-02T15:06:26.019Z</time></trkpt><trkpt lat="45.596808449650496" lon="10.113227896189864"><ele>173.0</ele><time>2026-05-02T15:06:29.02Z</time></trkpt><trkpt lat="45.596797197667726" lon="10.113335703049302"><ele>173.0</ele><time>2026-05-02T15:06:32.02Z</time></trkpt><trkpt lat="45.59679083628443" lon="10.113446079850613"><ele>173.0</ele><time>2026-05-02T15:06:35.02Z</time></trkpt><trkpt lat="45.596783286576716" lon="10.113559239733382"><ele>173.0</ele><time>2026-05-02T15:06:38.02Z</time></trkpt><trkpt lat="45.596778969980626" lon="10.11367074841559"><ele>173.0</ele><time>2026-05-02T15:06:41.02Z</time></trkpt><trkpt lat="45.59679327768205" lon="10.113774987171826"><ele>173.0</ele><time>2026-05-02T15:06:44.02Z</time></trkpt><trkpt lat="45.596804847808876" lon="10.113883948761986"><ele>173.0</ele><time>2026-05-02T15:06:47.02Z</time></trkpt><trkpt lat="45.59681723031005" lon="10.113986727724434"><ele>172.83333333333331</ele><time>2026-05-02T15:06:50.02Z</time></trkpt><trkpt lat="45.596832542543524" lon="10.114097788577554"><ele>172.66666666666666</ele><time>2026-05-02T15:06:53.02Z</time></trkpt><trkpt lat="45.596846904663614" lon="10.114199744122663"><ele>172.5</ele><time>2026-05-02T15:06:56.02Z</time></trkpt><trkpt lat="45.59685465430158" lon="10.114308436345556"><ele>172.33333333333334</ele><time>2026-05-02T15:06:59.02Z</time></trkpt><trkpt lat="45.596867456004254" lon="10.11441600646906"><ele>172.16666666666669</ele><time>2026-05-02T15:07:02.02Z</time></trkpt><trkpt lat="45.596878394318466" lon="10.11452532751152"><ele>172.0</ele><time>2026-05-02T15:07:05.02Z</time></trkpt><trkpt lat="45.59689761668283" lon="10.114625422182373"><ele>172.0</ele><time>2026-05-02T15:07:08.02Z</time></trkpt><trkpt lat="45.59690270789652" lon="10.114735079680274"><ele>172.0</ele><time>2026-05-02T15:07:11.02Z</time></trkpt><trkpt lat="45.596917280636504" lon="10.114842618122609"><ele>172.0</ele><time>2026-05-02T15:07:14.02Z</time></trkpt><trkpt lat="45.596926910028806" lon="10.114949853930854"><ele>172.0</ele><time>2026-05-02T15:07:17.02Z</time></trkpt><trkpt lat="45.59693644516249" lon="10.115057508263362"><ele>172.0</ele><time>2026-05-02T15:07:20.019Z</time></trkpt><trkpt lat="45.59696249593278" lon="10.11515611356109"><ele>172.0</ele><time>2026-05-02T15:07:23.02Z</time></trkpt><trkpt lat="45.5969967580381" lon="10.115255166224417"><ele>172.0</ele><time>2026-05-02T15:07:26.02Z</time></trkpt><trkpt lat="45.59700617170332" lon="10.115353961745496"><ele>172.0</ele><time>2026-05-02T15:07:29.019Z</time></trkpt><trkpt lat="45.59701764946664" lon="10.115458723913356"><ele>172.0</ele><time>2026-05-02T15:07:32.019Z</time></trkpt><trkpt lat="45.59703558429309" lon="10.115573675087434"><ele>172.0</ele><time>2026-05-02T15:07:35.02Z</time></trkpt><trkpt lat="45.597035885949424" lon="10.115692696310695"><ele>172.0</ele><time>2026-05-02T15:07:38.02Z</time></trkpt><trkpt lat="45.59705958601119" lon="10.115798617277298"><ele>172.0</ele><time>2026-05-02T15:07:41.02Z</time></trkpt><trkpt lat="45.59707664029601" lon="10.115910743318171"><ele>172.0</ele><time>2026-05-02T15:07:44.02Z</time></trkpt><trkpt lat="45.59708341194454" lon="10.116014171695864"><ele>172.0</ele><time>2026-05-02T15:07:47.02Z</time></trkpt><trkpt lat="45.597095677450056" lon="10.116124473983255"><ele>172.0</ele><time>2026-05-02T15:07:50.02Z</time></trkpt><trkpt lat="45.597102075867916" lon="10.116237140907792"><ele>172.0</ele><time>2026-05-02T15:07:53.02Z</time></trkpt><trkpt lat="45.59710715257966" lon="10.11634020834206"><ele>172.0</ele><time>2026-05-02T15:07:56.02Z</time></trkpt><trkpt lat="45.59712473440291" lon="10.116447571829163"><ele>172.0</ele><time>2026-05-02T15:07:59.02Z</time></trkpt><trkpt lat="45.597133926743595" lon="10.116551449597583"><ele>171.83333333333334</ele><time>2026-05-02T15:08:02.02Z</time></trkpt><trkpt lat="45.59714443343508" lon="10.116654530807011"><ele>171.66666666666669</ele><time>2026-05-02T15:08:05.02Z</time></trkpt><trkpt lat="45.597136077212795" lon="10.116772582542852"><ele>171.5</ele><time>2026-05-02T15:08:08.02Z</time></trkpt><trkpt lat="45.59713667044563" lon="10.116880108149203"><ele>171.33333333333334</ele><time>2026-05-02T15:08:11.02Z</time></trkpt><trkpt lat="45.59713192623827" lon="10.116997092293769"><ele>171.16666666666666</ele><time>2026-05-02T15:08:14.02Z</time></trkpt><trkpt lat="45.59711082153887" lon="10.11710702873228"><ele>171.0</ele><time>2026-05-02T15:08:17.02Z</time></trkpt><trkpt lat="45.59710195753345" lon="10.117212349665083"><ele>171.0</ele><time>2026-05-02T15:08:20.021Z</time></trkpt><trkpt lat="45.5971020341704" lon="10.117324584011088"><ele>171.0</ele><time>2026-05-02T15:08:23.02Z</time></trkpt><trkpt lat="45.597101033406766" lon="10.11743199076448"><ele>171.0</ele><time>2026-05-02T15:08:26.019Z</time></trkpt><trkpt lat="45.59710093329072" lon="10.117528918856864"><ele>171.0</ele><time>2026-05-02T15:08:29.018Z</time></trkpt><trkpt lat="45.597083054649616" lon="10.11763928380255"><ele>171.0</ele><time>2026-05-02T15:08:32.017Z</time></trkpt><trkpt lat="45.597083525823265" lon="10.117753465464316"><ele>171.0</ele><time>2026-05-02T15:08:35.017Z</time></trkpt><trkpt lat="45.59707227230703" lon="10.117865533494232"><ele>170.83333333333334</ele><time>2026-05-02T15:08:38.017Z</time></trkpt><trkpt lat="45.597067610290686" lon="10.117983071714201"><ele>170.66666666666666</ele><time>2026-05-02T15:08:41.016Z</time></trkpt><trkpt lat="45.59706385549763" lon="10.118099261091109"><ele>170.5</ele><time>2026-05-02T15:08:44.016Z</time></trkpt><trkpt lat="45.59705155481098" lon="10.11819332712742"><ele>170.33333333333331</ele><time>2026-05-02T15:08:47.016Z</time></trkpt><trkpt lat="45.59704326398515" lon="10.118315954889853"><ele>170.16666666666666</ele><time>2026-05-02T15:08:50.016Z</time></trkpt><trkpt lat="45.597038469458205" lon="10.118427012631136"><ele>170.0</ele><time>2026-05-02T15:08:53.016Z</time></trkpt><trkpt lat="45.59702504319878" lon="10.118534660734563"><ele>169.83333333333331</ele><time>2026-05-02T15:08:56.015Z</time></trkpt><trkpt lat="45.59701526372635" lon="10.118642967960785"><ele>169.66666666666666</ele><time>2026-05-02T15:08:59.015Z</time></trkpt><trkpt lat="45.59700163731156" lon="10.11874341276387"><ele>169.5</ele><time>2026-05-02T15:09:02.015Z</time></trkpt><trkpt lat="45.59698000547564" lon="10.118862717946746"><ele>169.33333333333334</ele><time>2026-05-02T15:09:05.015Z</time></trkpt><trkpt lat="45.59696793618336" lon="10.11897340127746"><ele>169.16666666666669</ele><time>2026-05-02T15:09:08.015Z</time></trkpt><trkpt lat="45.596947220726626" lon="10.119079033769244"><ele>169.0</ele><time>2026-05-02T15:09:11.015Z</time></trkpt><trkpt lat="45.59694212399183" lon="10.119189474414389"><ele>169.0</ele><time>2026-05-02T15:09:14.015Z</time></trkpt><trkpt lat="45.596932064379295" lon="10.119299483318155"><ele>169.0</ele><time>2026-05-02T15:09:17.015Z</time></trkpt><trkpt lat="45.5969204461278" lon="10.119407743246938"><ele>169.0</ele><time>2026-05-02T15:09:20.015Z</time></trkpt><trkpt lat="45.59690848030981" lon="10.119514074459625"><ele>169.0</ele><time>2026-05-02T15:09:23.015Z</time></trkpt><trkpt lat="45.59689778357908" lon="10.119610567041684"><ele>169.0</ele><time>2026-05-02T15:09:26.014Z</time></trkpt><trkpt lat="45.59689913048139" lon="10.119723507039058"><ele>169.0</ele><time>2026-05-02T15:09:30.014Z</time></trkpt><trkpt lat="45.59689907777119" lon="10.11982784115188"><ele>168.57142857142858</ele><time>2026-05-02T15:09:33.014Z</time></trkpt><trkpt lat="45.596904191798515" lon="10.119933236523396"><ele>168.14285714285714</ele><time>2026-05-02T15:09:36.015Z</time></trkpt><trkpt lat="45.59687954405276" lon="10.120042072118652"><ele>167.71428571428572</ele><time>2026-05-02T15:09:39.014Z</time></trkpt><trkpt lat="45.5968760727478" lon="10.120148518266923"><ele>167.28571428571428</ele><time>2026-05-02T15:09:42.014Z</time></trkpt><trkpt lat="45.59687643877451" lon="10.12025141118621"><ele>166.85714285714286</ele><time>2026-05-02T15:09:45.014Z</time></trkpt><trkpt lat="45.59687472554199" lon="10.120348888891108"><ele>166.42857142857142</ele><time>2026-05-02T15:09:48.015Z</time></trkpt><trkpt lat="45.59687453803085" lon="10.120463401102683"><ele>166.0</ele><time>2026-05-02T15:09:51.015Z</time></trkpt><trkpt lat="45.59687023614534" lon="10.120554853042657"><ele>166.0</ele><time>2026-05-02T15:09:54.015Z</time></trkpt><trkpt lat="45.596867979958105" lon="10.120667349189041"><ele>166.0</ele><time>2026-05-02T15:09:57.015Z</time></trkpt><trkpt lat="45.59687408727415" lon="10.120770738738655"><ele>166.0</ele><time>2026-05-02T15:10:00.015Z</time></trkpt><trkpt lat="45.59687227188737" lon="10.120870425015966"><ele>166.0</ele><time>2026-05-02T15:10:03.015Z</time></trkpt><trkpt lat="45.59685386281587" lon="10.120982909824924"><ele>166.0</ele><time>2026-05-02T15:10:06.015Z</time></trkpt><trkpt lat="45.596838043113024" lon="10.121092201619954"><ele>166.0</ele><time>2026-05-02T15:10:09.015Z</time></trkpt><trkpt lat="45.59682618617158" lon="10.121206997191369"><ele>165.83333333333334</ele><time>2026-05-02T15:10:12.015Z</time></trkpt><trkpt lat="45.59680972293832" lon="10.121332574462997"><ele>165.66666666666669</ele><time>2026-05-02T15:10:15.015Z</time></trkpt><trkpt lat="45.59678339936821" lon="10.12143929967127"><ele>165.5</ele><time>2026-05-02T15:10:18.015Z</time></trkpt><trkpt lat="45.59676056399167" lon="10.121549451778076"><ele>165.33333333333334</ele><time>2026-05-02T15:10:21.015Z</time></trkpt><trkpt lat="45.59676040647736" lon="10.12166894065762"><ele>165.16666666666666</ele><time>2026-05-02T15:10:24.015Z</time></trkpt><trkpt lat="45.5967431752339" lon="10.121768960600603"><ele>165.0</ele><time>2026-05-02T15:10:27.015Z</time></trkpt><trkpt lat="45.59671946945198" lon="10.121872133422913"><ele>165.0</ele><time>2026-05-02T15:10:30.015Z</time></trkpt><trkpt lat="45.59670135419509" lon="10.121966906954173"><ele>165.0</ele><time>2026-05-02T15:10:33.015Z</time></trkpt><trkpt lat="45.596676093206675" lon="10.122058156108633"><ele>165.0</ele><time>2026-05-02T15:10:36.015Z</time></trkpt><trkpt lat="45.59666880393738" lon="10.122185485120855"><ele>165.0</ele><time>2026-05-02T15:10:40.015Z</time></trkpt><trkpt lat="45.59664235655342" lon="10.122300192528627"><ele>165.0</ele><time>2026-05-02T15:10:43.015Z</time></trkpt><trkpt lat="45.596619349012535" lon="10.122421926287906"><ele>165.0</ele><time>2026-05-02T15:10:46.015Z</time></trkpt><trkpt lat="45.59660636276031" lon="10.122527294207739"><ele>165.16666666666666</ele><time>2026-05-02T15:10:49.016Z</time></trkpt><trkpt lat="45.59657743433449" lon="10.122634433148331"><ele>165.33333333333334</ele><time>2026-05-02T15:10:52.016Z</time></trkpt><trkpt lat="45.596567227160826" lon="10.122738717186587"><ele>165.5</ele><time>2026-05-02T15:10:55.016Z</time></trkpt><trkpt lat="45.59656505765652" lon="10.122845909083773"><ele>165.66666666666669</ele><time>2026-05-02T15:10:58.016Z</time></trkpt><trkpt lat="45.596575437383834" lon="10.12295567281385"><ele>165.83333333333334</ele><time>2026-05-02T15:11:01.016Z</time></trkpt><trkpt lat="45.59657921579654" lon="10.12306818167323"><ele>166.0</ele><time>2026-05-02T15:11:04.016Z</time></trkpt><trkpt lat="45.59658524727369" lon="10.123181596656455"><ele>166.33333333333334</ele><time>2026-05-02T15:11:07.016Z</time></trkpt><trkpt lat="45.5965924055585" lon="10.123287139812671"><ele>166.66666666666669</ele><time>2026-05-02T15:11:10.016Z</time></trkpt><trkpt lat="45.59659250631611" lon="10.123388281913144"><ele>167.0</ele><time>2026-05-02T15:11:13.016Z</time></trkpt><trkpt lat="45.59658755410853" lon="10.123500057838204"><ele>167.33333333333334</ele><time>2026-05-02T15:11:16.016Z</time></trkpt><trkpt lat="45.59657694294596" lon="10.12361120430433"><ele>167.66666666666666</ele><time>2026-05-02T15:11:19.016Z</time></trkpt><trkpt lat="45.59658781402859" lon="10.12372546518653"><ele>168.0</ele><time>2026-05-02T15:11:22.016Z</time></trkpt><trkpt lat="45.59657857391988" lon="10.123830353839733"><ele>168.0</ele><time>2026-05-02T15:11:25.016Z</time></trkpt><trkpt lat="45.59657710182501" lon="10.123937266618244"><ele>168.0</ele><time>2026-05-02T15:11:28.016Z</time></trkpt><trkpt lat="45.59659585595869" lon="10.124025688461558"><ele>168.0</ele><time>2026-05-02T15:11:31.016Z</time></trkpt><trkpt lat="45.59660725099951" lon="10.124137211587579"><ele>168.0</ele><time>2026-05-02T15:11:35.015Z</time></trkpt><trkpt lat="45.59661832553633" lon="10.12423154413451"><ele>168.0</ele><time>2026-05-02T15:11:38.015Z</time></trkpt><trkpt lat="45.59662381800269" lon="10.124337555809467"><ele>168.0</ele><time>2026-05-02T15:11:41.015Z</time></trkpt><trkpt lat="45.59663243667511" lon="10.124450289163585"><ele>168.0</ele><time>2026-05-02T15:11:44.015Z</time></trkpt><trkpt lat="45.59665689848685" lon="10.12454824417927"><ele>168.0</ele><time>2026-05-02T15:11:47.015Z</time></trkpt><trkpt lat="45.596658926187885" lon="10.124664954083245"><ele>168.0</ele><time>2026-05-02T15:11:50.015Z</time></trkpt><trkpt lat="45.59664385659803" lon="10.124779143942304"><ele>168.0</ele><time>2026-05-02T15:11:53.015Z</time></trkpt><trkpt lat="45.59660014288844" lon="10.124882878940229"><ele>168.0</ele><time>2026-05-02T15:11:56.015Z</time></trkpt><trkpt lat="45.59657645411809" lon="10.124983941046999"><ele>168.0</ele><time>2026-05-02T15:11:59.015Z</time></trkpt><trkpt lat="45.59657646000115" lon="10.125099685574105"><ele>168.0</ele><time>2026-05-02T15:12:02.015Z</time></trkpt><trkpt lat="45.59656652033567" lon="10.125210473023666"><ele>168.0</ele><time>2026-05-02T15:12:05.015Z</time></trkpt><trkpt lat="45.59657213711974" lon="10.12531115935495"><ele>168.0</ele><time>2026-05-02T15:12:08.015Z</time></trkpt><trkpt lat="45.596571129437834" lon="10.125415567833041"><ele>168.0</ele><time>2026-05-02T15:12:11.015Z</time></trkpt><trkpt lat="45.5965642889502" lon="10.125519284548522"><ele>168.0</ele><time>2026-05-02T15:12:14.016Z</time></trkpt><trkpt lat="45.59655981194051" lon="10.125619295672722"><ele>168.0</ele><time>2026-05-02T15:12:17.016Z</time></trkpt><trkpt lat="45.596562774941866" lon="10.125728860803898"><ele>168.0</ele><time>2026-05-02T15:12:20.016Z</time></trkpt><trkpt lat="45.59654630102493" lon="10.125843113695343"><ele>168.0</ele><time>2026-05-02T15:12:23.016Z</time></trkpt><trkpt lat="45.59654272959477" lon="10.125951245916417"><ele>168.0</ele><time>2026-05-02T15:12:26.016Z</time></trkpt><trkpt lat="45.596537685600886" lon="10.126067547574635"><ele>168.0</ele><time>2026-05-02T15:12:29.016Z</time></trkpt><trkpt lat="45.59653893314334" lon="10.12617774958807"><ele>168.0</ele><time>2026-05-02T15:12:32.016Z</time></trkpt><trkpt lat="45.59653382756091" lon="10.126277106734259"><ele>168.0</ele><time>2026-05-02T15:12:35.016Z</time></trkpt><trkpt lat="45.596529027291425" lon="10.126385980065308"><ele>168.0</ele><time>2026-05-02T15:12:38.016Z</time></trkpt><trkpt lat="45.59652781836623" lon="10.126497259672433"><ele>168.0</ele><time>2026-05-02T15:12:41.016Z</time></trkpt><trkpt lat="45.5965294601199" lon="10.126610440295485"><ele>167.5</ele><time>2026-05-02T15:12:44.016Z</time></trkpt><trkpt lat="45.596525523990564" lon="10.126728545225143"><ele>167.0</ele><time>2026-05-02T15:12:47.016Z</time></trkpt><trkpt lat="45.596521931432214" lon="10.126835365599735"><ele>166.5</ele><time>2026-05-02T15:12:50.016Z</time></trkpt><trkpt lat="45.59651712455923" lon="10.126950769007227"><ele>166.0</ele><time>2026-05-02T15:12:53.016Z</time></trkpt><trkpt lat="45.596508911238814" lon="10.127072554541806"><ele>165.5</ele><time>2026-05-02T15:12:56.016Z</time></trkpt><trkpt lat="45.5964931212096" lon="10.12719151536811"><ele>165.0</ele><time>2026-05-02T15:12:59.016Z</time></trkpt><trkpt lat="45.59648794801845" lon="10.127305342182536"><ele>164.66666666666666</ele><time>2026-05-02T15:13:02.016Z</time></trkpt><trkpt lat="45.59649270592011" lon="10.127408960486028"><ele>164.33333333333334</ele><time>2026-05-02T15:13:05.016Z</time></trkpt><trkpt lat="45.59650607391248" lon="10.127518733500365"><ele>164.0</ele><time>2026-05-02T15:13:08.016Z</time></trkpt><trkpt lat="45.59651754245929" lon="10.127629798126383"><ele>163.66666666666669</ele><time>2026-05-02T15:13:11.017Z</time></trkpt><trkpt lat="45.59652910102811" lon="10.127739494024249"><ele>163.33333333333334</ele><time>2026-05-02T15:13:14.017Z</time></trkpt><trkpt lat="45.596541174307575" lon="10.127839489641067"><ele>163.0</ele><time>2026-05-02T15:13:17.017Z</time></trkpt><trkpt lat="45.59655319777894" lon="10.127946466069853"><ele>163.0</ele><time>2026-05-02T15:13:20.017Z</time></trkpt><trkpt lat="45.59657138569584" lon="10.128042144056726"><ele>163.0</ele><time>2026-05-02T15:13:23.017Z</time></trkpt><trkpt lat="45.59658614557791" lon="10.128152284114531"><ele>163.0</ele><time>2026-05-02T15:13:26.017Z</time></trkpt><trkpt lat="45.59660476965865" lon="10.128250569027278"><ele>163.0</ele><time>2026-05-02T15:13:29.017Z</time></trkpt><trkpt lat="45.59661426522376" lon="10.128350445401939"><ele>163.0</ele><time>2026-05-02T15:13:32.017Z</time></trkpt><trkpt lat="45.59663002152607" lon="10.128451208834063"><ele>163.0</ele><time>2026-05-02T15:13:35.017Z</time></trkpt><trkpt lat="45.59664482263927" lon="10.12855525630807"><ele>163.0</ele><time>2026-05-02T15:13:38.016Z</time></trkpt><trkpt lat="45.596656562580634" lon="10.128654198456191"><ele>163.0</ele><time>2026-05-02T15:13:41.016Z</time></trkpt><trkpt lat="45.59669478341358" lon="10.12875592373268"><ele>163.0</ele><time>2026-05-02T15:13:44.016Z</time></trkpt><trkpt lat="45.59673366923345" lon="10.128851762095088"><ele>163.0</ele><time>2026-05-02T15:13:47.016Z</time></trkpt><trkpt lat="45.59674827229315" lon="10.12894735937923"><ele>163.0</ele><time>2026-05-02T15:13:50.016Z</time></trkpt><trkpt lat="45.596759706434845" lon="10.129054178087792"><ele>163.0</ele><time>2026-05-02T15:13:53.016Z</time></trkpt><trkpt lat="45.596776921540474" lon="10.129155000039363"><ele>163.0</ele><time>2026-05-02T15:13:56.017Z</time></trkpt><trkpt lat="45.59679536234096" lon="10.129269334957097"><ele>163.0</ele><time>2026-05-02T15:13:59.017Z</time></trkpt><trkpt lat="45.59681063658487" lon="10.129377238413447"><ele>163.0</ele><time>2026-05-02T15:14:02.017Z</time></trkpt><trkpt lat="45.59681137026227" lon="10.129480126446119"><ele>163.0</ele><time>2026-05-02T15:14:05.017Z</time></trkpt><trkpt lat="45.596829331514414" lon="10.12957979240131"><ele>163.0</ele><time>2026-05-02T15:14:08.017Z</time></trkpt><trkpt lat="45.596837136903005" lon="10.129687111084612"><ele>163.0</ele><time>2026-05-02T15:14:11.017Z</time></trkpt><trkpt lat="45.59683252645825" lon="10.129798787348902"><ele>163.0</ele><time>2026-05-02T15:14:14.017Z</time></trkpt><trkpt lat="45.59681698826648" lon="10.129905399654692"><ele>163.0</ele><time>2026-05-02T15:14:17.017Z</time></trkpt><trkpt lat="45.59681039528328" lon="10.1300095904186"><ele>163.0</ele><time>2026-05-02T15:14:20.017Z</time></trkpt><trkpt lat="45.5967977207282" lon="10.130133530662405"><ele>163.0</ele><time>2026-05-02T15:14:23.017Z</time></trkpt><trkpt lat="45.59680271895782" lon="10.130241276145018"><ele>163.0</ele><time>2026-05-02T15:14:26.017Z</time></trkpt><trkpt lat="45.59679400078642" lon="10.130348377536437"><ele>163.0</ele><time>2026-05-02T15:14:29.017Z</time></trkpt><trkpt lat="45.596785490856426" lon="10.130462425239992"><ele>163.0</ele><time>2026-05-02T15:14:32.017Z</time></trkpt><trkpt lat="45.59677921716606" lon="10.130569205751504"><ele>163.0</ele><time>2026-05-02T15:14:35.017Z</time></trkpt><trkpt lat="45.59676446041629" lon="10.130673963845974"><ele>163.0</ele><time>2026-05-02T15:14:38.017Z</time></trkpt><trkpt lat="45.596766721403995" lon="10.130770718909245"><ele>163.0</ele><time>2026-05-02T15:14:41.017Z</time></trkpt><trkpt lat="45.59677031136088" lon="10.130876750045715"><ele>163.0</ele><time>2026-05-02T15:14:44.017Z</time></trkpt><trkpt lat="45.59676248536608" lon="10.130982673813842"><ele>163.0</ele><time>2026-05-02T15:14:47.017Z</time></trkpt><trkpt lat="45.59676092850758" lon="10.131091928880172"><ele>163.0</ele><time>2026-05-02T15:14:50.017Z</time></trkpt><trkpt lat="45.59674776308266" lon="10.131194364167767"><ele>163.0</ele><time>2026-05-02T15:14:53.018Z</time></trkpt><trkpt lat="45.59672590229679" lon="10.131294879432634"><ele>163.14285714285714</ele><time>2026-05-02T15:14:56.018Z</time></trkpt><trkpt lat="45.59668886898795" lon="10.131390423060395"><ele>163.28571428571428</ele><time>2026-05-02T15:14:59.018Z</time></trkpt><trkpt lat="45.5966595970291" lon="10.131489074053453"><ele>163.42857142857142</ele><time>2026-05-02T15:15:02.018Z</time></trkpt><trkpt lat="45.59664564240228" lon="10.13159901337948"><ele>163.57142857142856</ele><time>2026-05-02T15:15:05.018Z</time></trkpt><trkpt lat="45.596638654763886" lon="10.13170777436224"><ele>163.71428571428572</ele><time>2026-05-02T15:15:08.018Z</time></trkpt><trkpt lat="45.59662682541241" lon="10.13180476429683"><ele>163.85714285714283</ele><time>2026-05-02T15:15:11.018Z</time></trkpt><trkpt lat="45.59658378119113" lon="10.131882775604376"><ele>164.0</ele><time>2026-05-02T15:15:14.018Z</time></trkpt><trkpt lat="45.59653670764461" lon="10.131977108461049"><ele>164.14285714285714</ele><time>2026-05-02T15:15:18.018Z</time></trkpt><trkpt lat="45.596483114849" lon="10.13206550114261"><ele>164.28571428571428</ele><time>2026-05-02T15:15:21.018Z</time></trkpt><trkpt lat="45.596425620121394" lon="10.132135316303392"><ele>164.42857142857144</ele><time>2026-05-02T15:15:24.018Z</time></trkpt><trkpt lat="45.596362826536804" lon="10.132163926663738"><ele>164.57142857142856</ele><time>2026-05-02T15:15:27.018Z</time></trkpt><trkpt lat="45.59629531015602" lon="10.132136966632176"><ele>164.71428571428572</ele><time>2026-05-02T15:15:30.018Z</time></trkpt><trkpt lat="45.59623264274016" lon="10.132079967575645"><ele>164.85714285714286</ele><time>2026-05-02T15:15:33.018Z</time></trkpt><trkpt lat="45.59616895719974" lon="10.132034371926492"><ele>165.0</ele><time>2026-05-02T15:15:36.018Z</time></trkpt><trkpt lat="45.596096191688396" lon="10.131958629801947"><ele>165.0</ele><time>2026-05-02T15:15:40.018Z</time></trkpt><trkpt lat="45.59602107284644" lon="10.1319007512888"><ele>165.0</ele><time>2026-05-02T15:15:43.018Z</time></trkpt><trkpt lat="45.59594673793491" lon="10.131843386690253"><ele>165.0</ele><time>2026-05-02T15:15:46.016Z</time></trkpt><trkpt lat="45.59588077532571" lon="10.131770836949718"><ele>165.0</ele><time>2026-05-02T15:15:49.017Z</time></trkpt><trkpt lat="45.59581403102594" lon="10.13170114041375"><ele>165.0</ele><time>2026-05-02T15:15:52.017Z</time></trkpt><trkpt lat="45.59575105685632" lon="10.131640475733345"><ele>165.0</ele><time>2026-05-02T15:15:55.017Z</time></trkpt><trkpt lat="45.595680403399314" lon="10.131601015545817"><ele>165.0</ele><time>2026-05-02T15:15:58.017Z</time></trkpt><trkpt lat="45.59559839636647" lon="10.131632834861847"><ele>165.0</ele><time>2026-05-02T15:16:02.017Z</time></trkpt><trkpt lat="45.595530887320926" lon="10.131649834746101"><ele>165.0</ele><time>2026-05-02T15:16:05.017Z</time></trkpt><trkpt lat="45.595457524655224" lon="10.131642206402256"><ele>165.0</ele><time>2026-05-02T15:16:08.017Z</time></trkpt><trkpt lat="45.595379919447296" lon="10.131627665310976"><ele>165.0</ele><time>2026-05-02T15:16:11.017Z</time></trkpt><trkpt lat="45.595301780845084" lon="10.131611492353318"><ele>165.0</ele><time>2026-05-02T15:16:14.017Z</time></trkpt><trkpt lat="45.59521948286331" lon="10.131607194148264"><ele>164.16666666666666</ele><time>2026-05-02T15:16:17.017Z</time></trkpt><trkpt lat="45.59513131474629" lon="10.13160644358518"><ele>163.33333333333334</ele><time>2026-05-02T15:16:20.017Z</time></trkpt><trkpt lat="45.59505256669431" lon="10.131625786132465"><ele>162.5</ele><time>2026-05-02T15:16:23.017Z</time></trkpt><trkpt lat="45.59499850608661" lon="10.131690509769198"><ele>161.66666666666669</ele><time>2026-05-02T15:16:26.017Z</time></trkpt><trkpt lat="45.5949876859289" lon="10.13180121507875"><ele>160.83333333333334</ele><time>2026-05-02T15:16:30.017Z</time></trkpt><trkpt lat="45.59497569668839" lon="10.131896466463493"><ele>160.0</ele><time>2026-05-02T15:16:33.017Z</time></trkpt><trkpt lat="45.59496001502924" lon="10.132017690468308"><ele>160.0</ele><time>2026-05-02T15:16:37.017Z</time></trkpt><trkpt lat="45.594935752707975" lon="10.13211359619823"><ele>160.0</ele><time>2026-05-02T15:16:40.017Z</time></trkpt><trkpt lat="45.59490589352782" lon="10.132211964724126"><ele>160.0</ele><time>2026-05-02T15:16:43.017Z</time></trkpt><trkpt lat="45.59488338501498" lon="10.132303727542944"><ele>160.0</ele><time>2026-05-02T15:16:45.017Z</time></trkpt><trkpt lat="45.59487219914122" lon="10.132419874249177"><ele>160.0</ele><time>2026-05-02T15:16:48.017Z</time></trkpt><trkpt lat="45.594857075120395" lon="10.132536687814605"><ele>160.0</ele><time>2026-05-02T15:16:51.017Z</time></trkpt><trkpt lat="45.59484535662962" lon="10.132650154630792"><ele>160.16666666666669</ele><time>2026-05-02T15:16:54.017Z</time></trkpt><trkpt lat="45.59482604557525" lon="10.132760987713963"><ele>160.33333333333334</ele><time>2026-05-02T15:16:57.018Z</time></trkpt><trkpt lat="45.59480572277848" lon="10.132880546514189"><ele>160.5</ele><time>2026-05-02T15:17:00.018Z</time></trkpt><trkpt lat="45.59477946283314" lon="10.132997838151907"><ele>160.66666666666666</ele><time>2026-05-02T15:17:03.018Z</time></trkpt><trkpt lat="45.59475844801456" lon="10.133104002493422"><ele>160.83333333333331</ele><time>2026-05-02T15:17:06.018Z</time></trkpt><trkpt lat="45.59474513312521" lon="10.133218505514703"><ele>161.0</ele><time>2026-05-02T15:17:09.018Z</time></trkpt><trkpt lat="45.59472107312351" lon="10.133321673310173"><ele>161.5</ele><time>2026-05-02T15:17:12.018Z</time></trkpt><trkpt lat="45.59471128943552" lon="10.133430631629047"><ele>162.0</ele><time>2026-05-02T15:17:15.018Z</time></trkpt><trkpt lat="45.59469103137275" lon="10.133544841648966"><ele>162.5</ele><time>2026-05-02T15:17:18.018Z</time></trkpt><trkpt lat="45.59466684212373" lon="10.133650226968802"><ele>163.0</ele><time>2026-05-02T15:17:21.018Z</time></trkpt><trkpt lat="45.59465478510673" lon="10.133759328209592"><ele>163.5</ele><time>2026-05-02T15:17:24.018Z</time></trkpt><trkpt lat="45.594638856375596" lon="10.133869465606526"><ele>164.0</ele><time>2026-05-02T15:17:27.018Z</time></trkpt><trkpt lat="45.594607352685564" lon="10.13398276803033"><ele>164.0</ele><time>2026-05-02T15:17:30.018Z</time></trkpt><trkpt lat="45.5945907576684" lon="10.13409103847486"><ele>164.0</ele><time>2026-05-02T15:17:33.018Z</time></trkpt><trkpt lat="45.59457123364339" lon="10.134200447511013"><ele>164.0</ele><time>2026-05-02T15:17:36.018Z</time></trkpt><trkpt lat="45.59455205883549" lon="10.134313627943918"><ele>164.0</ele><time>2026-05-02T15:17:39.018Z</time></trkpt><trkpt lat="45.594528996929775" lon="10.134416378383051"><ele>164.0</ele><time>2026-05-02T15:17:42.018Z</time></trkpt><trkpt lat="45.59450991434934" lon="10.134508202376963"><ele>164.0</ele><time>2026-05-02T15:17:46.018Z</time></trkpt></trkseg></trk></gpx>